<?xml version="1.0" encoding="UTF-8" standalone="no" ?>
<gpx xmlns="http://www.topografix.com/GPX/1/1" xmlns:xsi="http://www.w3.org/2001/XMLSchema-instance" xsi:schemaLocation="http://www.topografix.com/GPX/1/1 http://www.topografix.com/GPX/1/1/gpx.xsd" version="1.1" creator="VisuGPX - https://www.visugpx.com">
  <metadata>
    <name>Malestroit</name>
    <desc><![CDATA[Départ de l\'écluse de Malestroit : Boucle empruntant le GR 347 (balisage rouge et blanc) et pour le retour le circuit du sentier de la rivière (balisage jaune) au pont de la Bagotais.]]></desc>
  </metadata>
  <trk>
    <name><![CDATA[Malestroit Sentier de la Rivière1]]></name>
    <desc><![CDATA[À partir de la Piste Active]]></desc>
    <trkseg>
      <trkpt lat="47.81197" lon="-2.38284">
        <ele>-1.148438</ele>
        <time>2014-04-13T09:20:36Z</time>
      </trkpt>
      <trkpt lat="47.81192" lon="-2.38294">
        <ele>20.097656</ele>
        <time>2014-04-13T09:21:17Z</time>
      </trkpt>
      <trkpt lat="47.81189" lon="-2.38308">
        <ele>14.597656</ele>
        <time>2014-04-13T09:21:20Z</time>
      </trkpt>
      <trkpt lat="47.81183" lon="-2.38319">
        <ele>9</ele>
        <time>2014-04-13T09:21:31Z</time>
      </trkpt>
      <trkpt lat="47.81175" lon="-2.38326">
        <ele>7.699219</ele>
        <time>2014-04-13T09:21:41Z</time>
      </trkpt>
      <trkpt lat="47.81166" lon="-2.38331">
        <ele>4.796875</ele>
        <time>2014-04-13T09:21:49Z</time>
      </trkpt>
      <trkpt lat="47.81149" lon="-2.38341">
        <ele>2.597656</ele>
        <time>2014-04-13T09:22:07Z</time>
      </trkpt>
      <trkpt lat="47.81141" lon="-2.38349">
        <ele>-0.199219</ele>
        <time>2014-04-13T09:22:15Z</time>
      </trkpt>
      <trkpt lat="47.81132" lon="-2.38351">
        <ele>-1.597656</ele>
        <time>2014-04-13T09:22:24Z</time>
      </trkpt>
      <trkpt lat="47.81123" lon="-2.38355">
        <ele>-0.597656</ele>
        <time>2014-04-13T09:22:32Z</time>
      </trkpt>
      <trkpt lat="47.81118" lon="-2.38366">
        <ele>2.796875</ele>
        <time>2014-04-13T09:22:39Z</time>
      </trkpt>
      <trkpt lat="47.81119" lon="-2.3838">
        <ele>8.597656</ele>
        <time>2014-04-13T09:22:48Z</time>
      </trkpt>
      <trkpt lat="47.81113" lon="-2.38393">
        <ele>9.4375</ele>
        <time>2014-04-13T09:23:04Z</time>
      </trkpt>
      <trkpt lat="47.81106" lon="-2.384">
        <ele>7.398438</ele>
        <time>2014-04-13T09:23:22Z</time>
      </trkpt>
      <trkpt lat="47.81096" lon="-2.38401">
        <ele>4.398438</ele>
        <time>2014-04-13T09:24:11Z</time>
      </trkpt>
      <trkpt lat="47.81087" lon="-2.38401">
        <ele>4.296875</ele>
        <time>2014-04-13T09:24:21Z</time>
      </trkpt>
      <trkpt lat="47.81078" lon="-2.38406">
        <ele>2.398438</ele>
        <time>2014-04-13T09:24:31Z</time>
      </trkpt>
      <trkpt lat="47.81069" lon="-2.3841">
        <ele>-1.699219</ele>
        <time>2014-04-13T09:24:42Z</time>
      </trkpt>
      <trkpt lat="47.8106" lon="-2.38413">
        <ele>0.296875</ele>
        <time>2014-04-13T09:24:52Z</time>
      </trkpt>
      <trkpt lat="47.81051" lon="-2.3842">
        <ele>2.597656</ele>
        <time>2014-04-13T09:24:59Z</time>
      </trkpt>
      <trkpt lat="47.81043" lon="-2.38426">
        <ele>3.898438</ele>
        <time>2014-04-13T09:25:07Z</time>
      </trkpt>
      <trkpt lat="47.81034" lon="-2.3843">
        <ele>3.5</ele>
        <time>2014-04-13T09:25:15Z</time>
      </trkpt>
      <trkpt lat="47.81025" lon="-2.38428">
        <ele>6.097656</ele>
        <time>2014-04-13T09:25:22Z</time>
      </trkpt>
      <trkpt lat="47.81016" lon="-2.38421">
        <ele>0.699219</ele>
        <time>2014-04-13T09:25:24Z</time>
      </trkpt>
      <trkpt lat="47.81" lon="-2.3842">
        <ele>-5</ele>
        <time>2014-04-13T09:25:43Z</time>
      </trkpt>
      <trkpt lat="47.80991" lon="-2.38421">
        <ele>-2.796875</ele>
        <time>2014-04-13T09:25:53Z</time>
      </trkpt>
      <trkpt lat="47.80989" lon="-2.38435">
        <ele>-1.296875</ele>
        <time>2014-04-13T09:25:59Z</time>
      </trkpt>
      <trkpt lat="47.80983" lon="-2.38446">
        <ele>2.597656</ele>
        <time>2014-04-13T09:26:05Z</time>
      </trkpt>
      <trkpt lat="47.80976" lon="-2.38458">
        <ele>3.699219</ele>
        <time>2014-04-13T09:26:10Z</time>
      </trkpt>
      <trkpt lat="47.80968" lon="-2.38465">
        <ele>-4.199219</ele>
        <time>2014-04-13T09:26:18Z</time>
      </trkpt>
      <trkpt lat="47.8096" lon="-2.38474">
        <ele>-4.296875</ele>
        <time>2014-04-13T09:26:31Z</time>
      </trkpt>
      <trkpt lat="47.80957" lon="-2.38488">
        <ele>-1.398438</ele>
        <time>2014-04-13T09:26:41Z</time>
      </trkpt>
      <trkpt lat="47.80959" lon="-2.38503">
        <ele>5.699219</ele>
        <time>2014-04-13T09:26:48Z</time>
      </trkpt>
      <trkpt lat="47.80969" lon="-2.38558">
        <ele>15.597656</ele>
        <time>2014-04-13T09:27:17Z</time>
      </trkpt>
      <trkpt lat="47.80977" lon="-2.38585">
        <ele>13.898438</ele>
        <time>2014-04-13T09:27:32Z</time>
      </trkpt>
      <trkpt lat="47.80985" lon="-2.38611">
        <ele>13.097656</ele>
        <time>2014-04-13T09:27:47Z</time>
      </trkpt>
      <trkpt lat="47.80991" lon="-2.38623">
        <ele>13.597656</ele>
        <time>2014-04-13T09:27:56Z</time>
      </trkpt>
      <trkpt lat="47.80997" lon="-2.38635">
        <ele>14.398438</ele>
        <time>2014-04-13T09:28:05Z</time>
      </trkpt>
      <trkpt lat="47.81" lon="-2.38649">
        <ele>15.699219</ele>
        <time>2014-04-13T09:28:12Z</time>
      </trkpt>
      <trkpt lat="47.81007" lon="-2.38675">
        <ele>22.699219</ele>
        <time>2014-04-13T09:28:26Z</time>
      </trkpt>
      <trkpt lat="47.81012" lon="-2.38686">
        <ele>22.097656</ele>
        <time>2014-04-13T09:28:34Z</time>
      </trkpt>
      <trkpt lat="47.81013" lon="-2.38699">
        <ele>20.097656</ele>
        <time>2014-04-13T09:28:44Z</time>
      </trkpt>
      <trkpt lat="47.81013" lon="-2.38713">
        <ele>18.597656</ele>
        <time>2014-04-13T09:28:53Z</time>
      </trkpt>
      <trkpt lat="47.81016" lon="-2.38726">
        <ele>15.796875</ele>
        <time>2014-04-13T09:29:01Z</time>
      </trkpt>
      <trkpt lat="47.8102" lon="-2.38739">
        <ele>13.898438</ele>
        <time>2014-04-13T09:29:09Z</time>
      </trkpt>
      <trkpt lat="47.81047" lon="-2.38817">
        <ele>16</ele>
        <time>2014-04-13T09:29:56Z</time>
      </trkpt>
      <trkpt lat="47.8105" lon="-2.38831">
        <ele>15.199219</ele>
        <time>2014-04-13T09:30:04Z</time>
      </trkpt>
      <trkpt lat="47.81054" lon="-2.38844">
        <ele>16.796875</ele>
        <time>2014-04-13T09:30:12Z</time>
      </trkpt>
      <trkpt lat="47.81057" lon="-2.38857">
        <ele>19.296875</ele>
        <time>2014-04-13T09:30:20Z</time>
      </trkpt>
      <trkpt lat="47.81072" lon="-2.3891">
        <ele>24.898438</ele>
        <time>2014-04-13T09:30:49Z</time>
      </trkpt>
      <trkpt lat="47.81071" lon="-2.38924">
        <ele>23.796875</ele>
        <time>2014-04-13T09:30:56Z</time>
      </trkpt>
      <trkpt lat="47.81071" lon="-2.38938">
        <ele>22.5</ele>
        <time>2014-04-13T09:31:03Z</time>
      </trkpt>
      <trkpt lat="47.81073" lon="-2.38951">
        <ele>22.296875</ele>
        <time>2014-04-13T09:31:11Z</time>
      </trkpt>
      <trkpt lat="47.81079" lon="-2.38979">
        <ele>22.199219</ele>
        <time>2014-04-13T09:31:29Z</time>
      </trkpt>
      <trkpt lat="47.81081" lon="-2.38994">
        <ele>22.5</ele>
        <time>2014-04-13T09:31:38Z</time>
      </trkpt>
      <trkpt lat="47.81087" lon="-2.39034">
        <ele>22</ele>
        <time>2014-04-13T09:32:13Z</time>
      </trkpt>
      <trkpt lat="47.81093" lon="-2.39076">
        <ele>22.699219</ele>
        <time>2014-04-13T09:32:33Z</time>
      </trkpt>
      <trkpt lat="47.81095" lon="-2.39105">
        <ele>23.699219</ele>
        <time>2014-04-13T09:32:52Z</time>
      </trkpt>
      <trkpt lat="47.81097" lon="-2.39119">
        <ele>25.296875</ele>
        <time>2014-04-13T09:33:02Z</time>
      </trkpt>
      <trkpt lat="47.81104" lon="-2.39129">
        <ele>27</ele>
        <time>2014-04-13T09:33:10Z</time>
      </trkpt>
      <trkpt lat="47.81113" lon="-2.39133">
        <ele>25.5</ele>
        <time>2014-04-13T09:33:23Z</time>
      </trkpt>
      <trkpt lat="47.81123" lon="-2.39136">
        <ele>25.398438</ele>
        <time>2014-04-13T09:33:33Z</time>
      </trkpt>
      <trkpt lat="47.81169" lon="-2.39151">
        <ele>19.296875</ele>
        <time>2014-04-13T09:34:16Z</time>
      </trkpt>
      <trkpt lat="47.81178" lon="-2.39152">
        <ele>22</ele>
        <time>2014-04-13T09:34:24Z</time>
      </trkpt>
      <trkpt lat="47.81188" lon="-2.39153">
        <ele>25.296875</ele>
        <time>2014-04-13T09:34:32Z</time>
      </trkpt>
      <trkpt lat="47.81197" lon="-2.3916">
        <ele>25.199219</ele>
        <time>2014-04-13T09:34:40Z</time>
      </trkpt>
      <trkpt lat="47.81206" lon="-2.39168">
        <ele>24.296875</ele>
        <time>2014-04-13T09:34:47Z</time>
      </trkpt>
      <trkpt lat="47.81212" lon="-2.3918">
        <ele>23</ele>
        <time>2014-04-13T09:34:54Z</time>
      </trkpt>
      <trkpt lat="47.81214" lon="-2.39194">
        <ele>22.898438</ele>
        <time>2014-04-13T09:35:01Z</time>
      </trkpt>
      <trkpt lat="47.81213" lon="-2.39208">
        <ele>22.699219</ele>
        <time>2014-04-13T09:35:09Z</time>
      </trkpt>
      <trkpt lat="47.81204" lon="-2.39293">
        <ele>20.597656</ele>
        <time>2014-04-13T09:35:58Z</time>
      </trkpt>
      <trkpt lat="47.81204" lon="-2.39308">
        <ele>21.097656</ele>
        <time>2014-04-13T09:36:07Z</time>
      </trkpt>
      <trkpt lat="47.81206" lon="-2.39321">
        <ele>22.199219</ele>
        <time>2014-04-13T09:36:15Z</time>
      </trkpt>
      <trkpt lat="47.81209" lon="-2.39334">
        <ele>23.597656</ele>
        <time>2014-04-13T09:36:23Z</time>
      </trkpt>
      <trkpt lat="47.81214" lon="-2.39346">
        <ele>24.398438</ele>
        <time>2014-04-13T09:36:31Z</time>
      </trkpt>
      <trkpt lat="47.8123" lon="-2.39381">
        <ele>25.597656</ele>
        <time>2014-04-13T09:36:54Z</time>
      </trkpt>
      <trkpt lat="47.81232" lon="-2.39394">
        <ele>26.597656</ele>
        <time>2014-04-13T09:37:02Z</time>
      </trkpt>
      <trkpt lat="47.81233" lon="-2.39409">
        <ele>27.097656</ele>
        <time>2014-04-13T09:37:11Z</time>
      </trkpt>
      <trkpt lat="47.81231" lon="-2.39424">
        <ele>27.898438</ele>
        <time>2014-04-13T09:37:19Z</time>
      </trkpt>
      <trkpt lat="47.81224" lon="-2.39465">
        <ele>32.296875</ele>
        <time>2014-04-13T09:37:45Z</time>
      </trkpt>
      <trkpt lat="47.81211" lon="-2.3952">
        <ele>42.097656</ele>
        <time>2014-04-13T09:38:25Z</time>
      </trkpt>
      <trkpt lat="47.81209" lon="-2.39534">
        <ele>43.597656</ele>
        <time>2014-04-13T09:38:34Z</time>
      </trkpt>
      <trkpt lat="47.81208" lon="-2.39547">
        <ele>43.699219</ele>
        <time>2014-04-13T09:38:43Z</time>
      </trkpt>
      <trkpt lat="47.81205" lon="-2.39588">
        <ele>43.898438</ele>
        <time>2014-04-13T09:39:10Z</time>
      </trkpt>
      <trkpt lat="47.81201" lon="-2.39602">
        <ele>44.097656</ele>
        <time>2014-04-13T09:39:19Z</time>
      </trkpt>
      <trkpt lat="47.81189" lon="-2.39657">
        <ele>46.699219</ele>
        <time>2014-04-13T09:39:50Z</time>
      </trkpt>
      <trkpt lat="47.81188" lon="-2.39671">
        <ele>49.097656</ele>
        <time>2014-04-13T09:39:58Z</time>
      </trkpt>
      <trkpt lat="47.81188" lon="-2.39685">
        <ele>49.597656</ele>
        <time>2014-04-13T09:40:08Z</time>
      </trkpt>
      <trkpt lat="47.81191" lon="-2.397">
        <ele>48.199219</ele>
        <time>2014-04-13T09:40:17Z</time>
      </trkpt>
      <trkpt lat="47.81198" lon="-2.39728">
        <ele>46</ele>
        <time>2014-04-13T09:40:33Z</time>
      </trkpt>
      <trkpt lat="47.812" lon="-2.39742">
        <ele>45</ele>
        <time>2014-04-13T09:40:40Z</time>
      </trkpt>
      <trkpt lat="47.81201" lon="-2.39755">
        <ele>44.199219</ele>
        <time>2014-04-13T09:40:47Z</time>
      </trkpt>
      <trkpt lat="47.81202" lon="-2.39769">
        <ele>44.5</ele>
        <time>2014-04-13T09:40:54Z</time>
      </trkpt>
      <trkpt lat="47.81202" lon="-2.39782">
        <ele>45.898438</ele>
        <time>2014-04-13T09:41:01Z</time>
      </trkpt>
      <trkpt lat="47.81201" lon="-2.39797">
        <ele>48.597656</ele>
        <time>2014-04-13T09:41:09Z</time>
      </trkpt>
      <trkpt lat="47.81197" lon="-2.3981">
        <ele>51.199219</ele>
        <time>2014-04-13T09:41:17Z</time>
      </trkpt>
      <trkpt lat="47.81191" lon="-2.39822">
        <ele>52.699219</ele>
        <time>2014-04-13T09:41:25Z</time>
      </trkpt>
      <trkpt lat="47.81183" lon="-2.39831">
        <ele>53.097656</ele>
        <time>2014-04-13T09:41:34Z</time>
      </trkpt>
      <trkpt lat="47.81176" lon="-2.3984">
        <ele>54.796875</ele>
        <time>2014-04-13T09:41:45Z</time>
      </trkpt>
      <trkpt lat="47.81174" lon="-2.39854">
        <ele>56.796875</ele>
        <time>2014-04-13T09:41:55Z</time>
      </trkpt>
      <trkpt lat="47.81174" lon="-2.39868">
        <ele>56.097656</ele>
        <time>2014-04-13T09:42:06Z</time>
      </trkpt>
      <trkpt lat="47.81176" lon="-2.39882">
        <ele>56.199219</ele>
        <time>2014-04-13T09:42:15Z</time>
      </trkpt>
      <trkpt lat="47.81178" lon="-2.39895">
        <ele>56.398438</ele>
        <time>2014-04-13T09:42:24Z</time>
      </trkpt>
      <trkpt lat="47.81188" lon="-2.39951">
        <ele>47.699219</ele>
        <time>2014-04-13T09:43:00Z</time>
      </trkpt>
      <trkpt lat="47.81194" lon="-2.39994">
        <ele>41.699219</ele>
        <time>2014-04-13T09:43:25Z</time>
      </trkpt>
      <trkpt lat="47.81197" lon="-2.40008">
        <ele>39.699219</ele>
        <time>2014-04-13T09:43:33Z</time>
      </trkpt>
      <trkpt lat="47.81205" lon="-2.40033">
        <ele>37.5</ele>
        <time>2014-04-13T09:44:43Z</time>
      </trkpt>
      <trkpt lat="47.8121" lon="-2.40045">
        <ele>37.898438</ele>
        <time>2014-04-13T09:45:51Z</time>
      </trkpt>
      <trkpt lat="47.81211" lon="-2.40058">
        <ele>36.199219</ele>
        <time>2014-04-13T09:45:59Z</time>
      </trkpt>
      <trkpt lat="47.81214" lon="-2.40071">
        <ele>35.199219</ele>
        <time>2014-04-13T09:46:07Z</time>
      </trkpt>
      <trkpt lat="47.81226" lon="-2.40125">
        <ele>31.699219</ele>
        <time>2014-04-13T09:46:39Z</time>
      </trkpt>
      <trkpt lat="47.8123" lon="-2.40138">
        <ele>31.5</ele>
        <time>2014-04-13T09:46:48Z</time>
      </trkpt>
      <trkpt lat="47.81234" lon="-2.40152">
        <ele>22.699219</ele>
        <time>2014-04-13T09:46:56Z</time>
      </trkpt>
      <trkpt lat="47.81233" lon="-2.40166">
        <ele>23.097656</ele>
        <time>2014-04-13T09:47:19Z</time>
      </trkpt>
      <trkpt lat="47.81234" lon="-2.40181">
        <ele>24.296875</ele>
        <time>2014-04-13T09:47:27Z</time>
      </trkpt>
      <trkpt lat="47.81235" lon="-2.40196">
        <ele>26.5</ele>
        <time>2014-04-13T09:47:35Z</time>
      </trkpt>
      <trkpt lat="47.81235" lon="-2.40209">
        <ele>27.898438</ele>
        <time>2014-04-13T09:47:42Z</time>
      </trkpt>
      <trkpt lat="47.81234" lon="-2.40223">
        <ele>29</ele>
        <time>2014-04-13T09:47:49Z</time>
      </trkpt>
      <trkpt lat="47.81233" lon="-2.40237">
        <ele>30.398438</ele>
        <time>2014-04-13T09:47:56Z</time>
      </trkpt>
      <trkpt lat="47.81231" lon="-2.40252">
        <ele>32</ele>
        <time>2014-04-13T09:48:04Z</time>
      </trkpt>
      <trkpt lat="47.81226" lon="-2.40279">
        <ele>35.597656</ele>
        <time>2014-04-13T09:48:43Z</time>
      </trkpt>
      <trkpt lat="47.81232" lon="-2.40289">
        <ele>36.597656</ele>
        <time>2014-04-13T09:51:24Z</time>
      </trkpt>
      <trkpt lat="47.8123" lon="-2.40303">
        <ele>38.199219</ele>
        <time>2014-04-13T09:51:34Z</time>
      </trkpt>
      <trkpt lat="47.81227" lon="-2.40317">
        <ele>39.898438</ele>
        <time>2014-04-13T09:51:42Z</time>
      </trkpt>
      <trkpt lat="47.81218" lon="-2.40357">
        <ele>45.796875</ele>
        <time>2014-04-13T09:52:04Z</time>
      </trkpt>
      <trkpt lat="47.8122" lon="-2.40371">
        <ele>44.597656</ele>
        <time>2014-04-13T09:52:13Z</time>
      </trkpt>
      <trkpt lat="47.81224" lon="-2.40383">
        <ele>41.796875</ele>
        <time>2014-04-13T09:52:22Z</time>
      </trkpt>
      <trkpt lat="47.81229" lon="-2.40395">
        <ele>40.5</ele>
        <time>2014-04-13T09:52:31Z</time>
      </trkpt>
      <trkpt lat="47.81233" lon="-2.40408">
        <ele>40.398438</ele>
        <time>2014-04-13T09:52:40Z</time>
      </trkpt>
      <trkpt lat="47.81236" lon="-2.40421">
        <ele>41.699219</ele>
        <time>2014-04-13T09:52:48Z</time>
      </trkpt>
      <trkpt lat="47.81237" lon="-2.40435">
        <ele>43.199219</ele>
        <time>2014-04-13T09:52:57Z</time>
      </trkpt>
      <trkpt lat="47.81236" lon="-2.4045">
        <ele>42.796875</ele>
        <time>2014-04-13T09:53:06Z</time>
      </trkpt>
      <trkpt lat="47.81236" lon="-2.40493">
        <ele>51.796875</ele>
        <time>2014-04-13T09:53:32Z</time>
      </trkpt>
      <trkpt lat="47.81232" lon="-2.40579">
        <ele>59.597656</ele>
        <time>2014-04-13T09:54:20Z</time>
      </trkpt>
      <trkpt lat="47.81231" lon="-2.40633">
        <ele>59.699219</ele>
        <time>2014-04-13T09:54:50Z</time>
      </trkpt>
      <trkpt lat="47.81234" lon="-2.40647">
        <ele>56.296875</ele>
        <time>2014-04-13T09:54:59Z</time>
      </trkpt>
      <trkpt lat="47.81243" lon="-2.4065">
        <ele>50.898438</ele>
        <time>2014-04-13T09:55:13Z</time>
      </trkpt>
      <trkpt lat="47.81252" lon="-2.40647">
        <ele>47.597656</ele>
        <time>2014-04-13T09:55:25Z</time>
      </trkpt>
      <trkpt lat="47.81261" lon="-2.40643">
        <ele>46.097656</ele>
        <time>2014-04-13T09:55:35Z</time>
      </trkpt>
      <trkpt lat="47.81271" lon="-2.40641">
        <ele>45.097656</ele>
        <time>2014-04-13T09:55:43Z</time>
      </trkpt>
      <trkpt lat="47.8128" lon="-2.40639">
        <ele>43.796875</ele>
        <time>2014-04-13T09:55:50Z</time>
      </trkpt>
      <trkpt lat="47.8129" lon="-2.40634">
        <ele>42.699219</ele>
        <time>2014-04-13T09:55:58Z</time>
      </trkpt>
      <trkpt lat="47.81351" lon="-2.40602">
        <ele>37.597656</ele>
        <time>2014-04-13T09:56:50Z</time>
      </trkpt>
      <trkpt lat="47.81368" lon="-2.40589">
        <ele>35.199219</ele>
        <time>2014-04-13T09:57:04Z</time>
      </trkpt>
      <trkpt lat="47.81382" lon="-2.40584">
        <ele>33.898438</ele>
        <time>2014-04-13T09:57:21Z</time>
      </trkpt>
      <trkpt lat="47.81392" lon="-2.4058">
        <ele>34.796875</ele>
        <time>2014-04-13T09:57:29Z</time>
      </trkpt>
      <trkpt lat="47.81401" lon="-2.40578">
        <ele>36.199219</ele>
        <time>2014-04-13T09:57:35Z</time>
      </trkpt>
      <trkpt lat="47.81411" lon="-2.40574">
        <ele>36.597656</ele>
        <time>2014-04-13T09:57:42Z</time>
      </trkpt>
      <trkpt lat="47.81419" lon="-2.40568">
        <ele>37.199219</ele>
        <time>2014-04-13T09:57:49Z</time>
      </trkpt>
      <trkpt lat="47.81427" lon="-2.40562">
        <ele>37.199219</ele>
        <time>2014-04-13T09:57:56Z</time>
      </trkpt>
      <trkpt lat="47.81485" lon="-2.40511">
        <ele>40.199219</ele>
        <time>2014-04-13T09:58:51Z</time>
      </trkpt>
      <trkpt lat="47.81494" lon="-2.40505">
        <ele>40.898438</ele>
        <time>2014-04-13T09:58:59Z</time>
      </trkpt>
      <trkpt lat="47.81502" lon="-2.405">
        <ele>40.699219</ele>
        <time>2014-04-13T09:59:06Z</time>
      </trkpt>
      <trkpt lat="47.81521" lon="-2.40492">
        <ele>39.199219</ele>
        <time>2014-04-13T09:59:21Z</time>
      </trkpt>
      <trkpt lat="47.8153" lon="-2.40489">
        <ele>39.796875</ele>
        <time>2014-04-13T09:59:29Z</time>
      </trkpt>
      <trkpt lat="47.81598" lon="-2.40475">
        <ele>43</ele>
        <time>2014-04-13T10:00:21Z</time>
      </trkpt>
      <trkpt lat="47.81606" lon="-2.40471">
        <ele>44.5</ele>
        <time>2014-04-13T10:00:29Z</time>
      </trkpt>
      <trkpt lat="47.81616" lon="-2.4047">
        <ele>45.097656</ele>
        <time>2014-04-13T10:00:38Z</time>
      </trkpt>
      <trkpt lat="47.81625" lon="-2.40469">
        <ele>42.699219</ele>
        <time>2014-04-13T10:00:46Z</time>
      </trkpt>
      <trkpt lat="47.81635" lon="-2.4047">
        <ele>40.296875</ele>
        <time>2014-04-13T10:00:56Z</time>
      </trkpt>
      <trkpt lat="47.81644" lon="-2.40475">
        <ele>38.597656</ele>
        <time>2014-04-13T10:01:05Z</time>
      </trkpt>
      <trkpt lat="47.81654" lon="-2.40483">
        <ele>38.597656</ele>
        <time>2014-04-13T10:01:16Z</time>
      </trkpt>
      <trkpt lat="47.8166" lon="-2.40494">
        <ele>37.597656</ele>
        <time>2014-04-13T10:01:25Z</time>
      </trkpt>
      <trkpt lat="47.81666" lon="-2.40505">
        <ele>36.199219</ele>
        <time>2014-04-13T10:01:35Z</time>
      </trkpt>
      <trkpt lat="47.81678" lon="-2.40512">
        <ele>34.5</ele>
        <time>2014-04-13T10:02:42Z</time>
      </trkpt>
      <trkpt lat="47.81683" lon="-2.40524">
        <ele>36.597656</ele>
        <time>2014-04-13T10:02:56Z</time>
      </trkpt>
      <trkpt lat="47.81691" lon="-2.40535">
        <ele>38.5</ele>
        <time>2014-04-13T10:03:11Z</time>
      </trkpt>
      <trkpt lat="47.81698" lon="-2.40543">
        <ele>36.5</ele>
        <time>2014-04-13T10:03:21Z</time>
      </trkpt>
      <trkpt lat="47.81706" lon="-2.40549">
        <ele>38.398438</ele>
        <time>2014-04-13T10:03:29Z</time>
      </trkpt>
      <trkpt lat="47.81715" lon="-2.40557">
        <ele>40.699219</ele>
        <time>2014-04-13T10:03:38Z</time>
      </trkpt>
      <trkpt lat="47.81722" lon="-2.40568">
        <ele>43.5</ele>
        <time>2014-04-13T10:03:45Z</time>
      </trkpt>
      <trkpt lat="47.81728" lon="-2.4058">
        <ele>45.5</ele>
        <time>2014-04-13T10:03:52Z</time>
      </trkpt>
      <trkpt lat="47.81743" lon="-2.40615">
        <ele>52.296875</ele>
        <time>2014-04-13T10:04:17Z</time>
      </trkpt>
      <trkpt lat="47.81746" lon="-2.40628">
        <ele>53.398438</ele>
        <time>2014-04-13T10:04:25Z</time>
      </trkpt>
      <trkpt lat="47.81757" lon="-2.40666">
        <ele>55.097656</ele>
        <time>2014-04-13T10:04:49Z</time>
      </trkpt>
      <trkpt lat="47.81762" lon="-2.40678">
        <ele>54.199219</ele>
        <time>2014-04-13T10:04:57Z</time>
      </trkpt>
      <trkpt lat="47.81767" lon="-2.4069">
        <ele>54.898438</ele>
        <time>2014-04-13T10:05:05Z</time>
      </trkpt>
      <trkpt lat="47.81772" lon="-2.40703">
        <ele>54.898438</ele>
        <time>2014-04-13T10:05:14Z</time>
      </trkpt>
      <trkpt lat="47.81775" lon="-2.40716">
        <ele>53.898438</ele>
        <time>2014-04-13T10:05:22Z</time>
      </trkpt>
      <trkpt lat="47.81793" lon="-2.40783">
        <ele>48</ele>
        <time>2014-04-13T10:06:01Z</time>
      </trkpt>
      <trkpt lat="47.81798" lon="-2.40796">
        <ele>48.097656</ele>
        <time>2014-04-13T10:06:10Z</time>
      </trkpt>
      <trkpt lat="47.81831" lon="-2.40902">
        <ele>40</ele>
        <time>2014-04-13T10:07:13Z</time>
      </trkpt>
      <trkpt lat="47.81834" lon="-2.40914">
        <ele>38.898438</ele>
        <time>2014-04-13T10:07:21Z</time>
      </trkpt>
      <trkpt lat="47.8184" lon="-2.40942">
        <ele>36.296875</ele>
        <time>2014-04-13T10:07:37Z</time>
      </trkpt>
      <trkpt lat="47.81843" lon="-2.40956">
        <ele>35.699219</ele>
        <time>2014-04-13T10:07:45Z</time>
      </trkpt>
      <trkpt lat="47.81915" lon="-2.41332">
        <ele>21.898438</ele>
        <time>2014-04-13T10:11:18Z</time>
      </trkpt>
      <trkpt lat="47.81919" lon="-2.41345">
        <ele>22.5</ele>
        <time>2014-04-13T10:11:26Z</time>
      </trkpt>
      <trkpt lat="47.81921" lon="-2.41359">
        <ele>24</ele>
        <time>2014-04-13T10:11:34Z</time>
      </trkpt>
      <trkpt lat="47.81923" lon="-2.41372">
        <ele>22.296875</ele>
        <time>2014-04-13T10:11:42Z</time>
      </trkpt>
      <trkpt lat="47.81926" lon="-2.41385">
        <ele>22.097656</ele>
        <time>2014-04-13T10:11:51Z</time>
      </trkpt>
      <trkpt lat="47.81935" lon="-2.41427">
        <ele>25.199219</ele>
        <time>2014-04-13T10:12:14Z</time>
      </trkpt>
      <trkpt lat="47.81945" lon="-2.41481">
        <ele>25.898438</ele>
        <time>2014-04-13T10:12:43Z</time>
      </trkpt>
      <trkpt lat="47.81949" lon="-2.41495">
        <ele>25.097656</ele>
        <time>2014-04-13T10:12:51Z</time>
      </trkpt>
      <trkpt lat="47.81959" lon="-2.41535">
        <ele>25.199219</ele>
        <time>2014-04-13T10:13:14Z</time>
      </trkpt>
      <trkpt lat="47.81972" lon="-2.41589">
        <ele>27.296875</ele>
        <time>2014-04-13T10:13:46Z</time>
      </trkpt>
      <trkpt lat="47.81974" lon="-2.41604">
        <ele>28.898438</ele>
        <time>2014-04-13T10:13:54Z</time>
      </trkpt>
      <trkpt lat="47.81973" lon="-2.41618">
        <ele>27.796875</ele>
        <time>2014-04-13T10:14:01Z</time>
      </trkpt>
      <trkpt lat="47.81974" lon="-2.41632">
        <ele>27.898438</ele>
        <time>2014-04-13T10:14:09Z</time>
      </trkpt>
      <trkpt lat="47.81975" lon="-2.41646">
        <ele>29.199219</ele>
        <time>2014-04-13T10:14:16Z</time>
      </trkpt>
      <trkpt lat="47.81974" lon="-2.4166">
        <ele>31.097656</ele>
        <time>2014-04-13T10:14:23Z</time>
      </trkpt>
      <trkpt lat="47.81972" lon="-2.41674">
        <ele>33.5</ele>
        <time>2014-04-13T10:14:30Z</time>
      </trkpt>
      <trkpt lat="47.81965" lon="-2.41715">
        <ele>37.898438</ele>
        <time>2014-04-13T10:14:51Z</time>
      </trkpt>
      <trkpt lat="47.81962" lon="-2.41728">
        <ele>41</ele>
        <time>2014-04-13T10:14:59Z</time>
      </trkpt>
      <trkpt lat="47.81957" lon="-2.41741">
        <ele>40.796875</ele>
        <time>2014-04-13T10:15:07Z</time>
      </trkpt>
      <trkpt lat="47.81952" lon="-2.41753">
        <ele>39.898438</ele>
        <time>2014-04-13T10:15:20Z</time>
      </trkpt>
      <trkpt lat="47.81952" lon="-2.41766">
        <ele>39</ele>
        <time>2014-04-13T10:20:31Z</time>
      </trkpt>
      <trkpt lat="47.81945" lon="-2.41775">
        <ele>38.898438</ele>
        <time>2014-04-13T10:20:43Z</time>
      </trkpt>
      <trkpt lat="47.81939" lon="-2.41786">
        <ele>41.398438</ele>
        <time>2014-04-13T10:20:54Z</time>
      </trkpt>
      <trkpt lat="47.81928" lon="-2.41811">
        <ele>47.699219</ele>
        <time>2014-04-13T10:21:10Z</time>
      </trkpt>
      <trkpt lat="47.81924" lon="-2.41825">
        <ele>48.898438</ele>
        <time>2014-04-13T10:21:18Z</time>
      </trkpt>
      <trkpt lat="47.81908" lon="-2.41876">
        <ele>48.398438</ele>
        <time>2014-04-13T10:21:48Z</time>
      </trkpt>
      <trkpt lat="47.81903" lon="-2.41889">
        <ele>47.597656</ele>
        <time>2014-04-13T10:21:57Z</time>
      </trkpt>
      <trkpt lat="47.81892" lon="-2.41912">
        <ele>48.296875</ele>
        <time>2014-04-13T10:22:11Z</time>
      </trkpt>
      <trkpt lat="47.8189" lon="-2.41926">
        <ele>45.097656</ele>
        <time>2014-04-13T10:22:21Z</time>
      </trkpt>
      <trkpt lat="47.81886" lon="-2.41939">
        <ele>45.097656</ele>
        <time>2014-04-13T10:22:30Z</time>
      </trkpt>
      <trkpt lat="47.81881" lon="-2.4195">
        <ele>47.898438</ele>
        <time>2014-04-13T10:22:38Z</time>
      </trkpt>
      <trkpt lat="47.81879" lon="-2.41965">
        <ele>51.296875</ele>
        <time>2014-04-13T10:22:50Z</time>
      </trkpt>
      <trkpt lat="47.81877" lon="-2.41979">
        <ele>53.199219</ele>
        <time>2014-04-13T10:23:01Z</time>
      </trkpt>
      <trkpt lat="47.81875" lon="-2.42014">
        <ele>54.515625</ele>
        <time>2014-04-13T10:23:29Z</time>
      </trkpt>
      <trkpt lat="47.81876" lon="-2.42028">
        <ele>56.574219</ele>
        <time>2014-04-13T10:23:45Z</time>
      </trkpt>
      <trkpt lat="47.81878" lon="-2.42041">
        <ele>57.097656</ele>
        <time>2014-04-13T10:24:04Z</time>
      </trkpt>
      <trkpt lat="47.81886" lon="-2.42106">
        <ele>56.097656</ele>
        <time>2014-04-13T10:24:34Z</time>
      </trkpt>
      <trkpt lat="47.81894" lon="-2.42138">
        <ele>55.699219</ele>
        <time>2014-04-13T10:24:45Z</time>
      </trkpt>
      <trkpt lat="47.81898" lon="-2.42151">
        <ele>56.796875</ele>
        <time>2014-04-13T10:24:52Z</time>
      </trkpt>
      <trkpt lat="47.81902" lon="-2.42163">
        <ele>58.296875</ele>
        <time>2014-04-13T10:24:59Z</time>
      </trkpt>
      <trkpt lat="47.81905" lon="-2.42177">
        <ele>58.699219</ele>
        <time>2014-04-13T10:25:07Z</time>
      </trkpt>
      <trkpt lat="47.8191" lon="-2.42191">
        <ele>57.097656</ele>
        <time>2014-04-13T10:25:15Z</time>
      </trkpt>
      <trkpt lat="47.81936" lon="-2.42253">
        <ele>60.199219</ele>
        <time>2014-04-13T10:26:09Z</time>
      </trkpt>
      <trkpt lat="47.81959" lon="-2.42288">
        <ele>60.796875</ele>
        <time>2014-04-13T10:26:23Z</time>
      </trkpt>
      <trkpt lat="47.81966" lon="-2.42297">
        <ele>61.898438</ele>
        <time>2014-04-13T10:26:30Z</time>
      </trkpt>
      <trkpt lat="47.81976" lon="-2.42311">
        <ele>62.796875</ele>
        <time>2014-04-13T10:26:41Z</time>
      </trkpt>
      <trkpt lat="47.81984" lon="-2.42319">
        <ele>64.058594</ele>
        <time>2014-04-13T10:26:48Z</time>
      </trkpt>
      <trkpt lat="47.8199" lon="-2.42329">
        <ele>64</ele>
        <time>2014-04-13T10:26:57Z</time>
      </trkpt>
      <trkpt lat="47.82014" lon="-2.42361">
        <ele>62.296875</ele>
        <time>2014-04-13T10:27:22Z</time>
      </trkpt>
      <trkpt lat="47.82075" lon="-2.42436">
        <ele>61.296875</ele>
        <time>2014-04-13T10:28:22Z</time>
      </trkpt>
      <trkpt lat="47.82084" lon="-2.42444">
        <ele>61.5</ele>
        <time>2014-04-13T10:28:29Z</time>
      </trkpt>
      <trkpt lat="47.821" lon="-2.42458">
        <ele>63.597656</ele>
        <time>2014-04-13T10:28:42Z</time>
      </trkpt>
      <trkpt lat="47.82109" lon="-2.42464">
        <ele>64.398438</ele>
        <time>2014-04-13T10:28:51Z</time>
      </trkpt>
      <trkpt lat="47.82118" lon="-2.42473">
        <ele>64.597656</ele>
        <time>2014-04-13T10:29:00Z</time>
      </trkpt>
      <trkpt lat="47.82127" lon="-2.42479">
        <ele>65.296875</ele>
        <time>2014-04-13T10:29:08Z</time>
      </trkpt>
      <trkpt lat="47.82136" lon="-2.42485">
        <ele>57.414063</ele>
        <time>2014-04-13T10:29:16Z</time>
      </trkpt>
      <trkpt lat="47.82143" lon="-2.42493">
        <ele>54.796875</ele>
        <time>2014-04-13T10:29:46Z</time>
      </trkpt>
      <trkpt lat="47.82153" lon="-2.42499">
        <ele>61.699219</ele>
        <time>2014-04-13T10:29:55Z</time>
      </trkpt>
      <trkpt lat="47.82162" lon="-2.42503">
        <ele>63.699219</ele>
        <time>2014-04-13T10:30:10Z</time>
      </trkpt>
      <trkpt lat="47.8217" lon="-2.42509">
        <ele>67.699219</ele>
        <time>2014-04-13T10:30:21Z</time>
      </trkpt>
      <trkpt lat="47.82179" lon="-2.42514">
        <ele>68.597656</ele>
        <time>2014-04-13T10:30:30Z</time>
      </trkpt>
      <trkpt lat="47.82196" lon="-2.42523">
        <ele>68</ele>
        <time>2014-04-13T10:30:46Z</time>
      </trkpt>
      <trkpt lat="47.82205" lon="-2.42526">
        <ele>68.796875</ele>
        <time>2014-04-13T10:30:52Z</time>
      </trkpt>
      <trkpt lat="47.82213" lon="-2.42532">
        <ele>66.097656</ele>
        <time>2014-04-13T10:31:00Z</time>
      </trkpt>
      <trkpt lat="47.82221" lon="-2.42538">
        <ele>63</ele>
        <time>2014-04-13T10:31:07Z</time>
      </trkpt>
      <trkpt lat="47.82227" lon="-2.42548">
        <ele>60.796875</ele>
        <time>2014-04-13T10:31:15Z</time>
      </trkpt>
      <trkpt lat="47.8223" lon="-2.42562">
        <ele>59.5</ele>
        <time>2014-04-13T10:31:25Z</time>
      </trkpt>
      <trkpt lat="47.82233" lon="-2.42576">
        <ele>59</ele>
        <time>2014-04-13T10:31:35Z</time>
      </trkpt>
      <trkpt lat="47.82232" lon="-2.42589">
        <ele>58.5</ele>
        <time>2014-04-13T10:31:43Z</time>
      </trkpt>
      <trkpt lat="47.82232" lon="-2.42604">
        <ele>58.296875</ele>
        <time>2014-04-13T10:31:52Z</time>
      </trkpt>
      <trkpt lat="47.82232" lon="-2.42646">
        <ele>59.597656</ele>
        <time>2014-04-13T10:32:16Z</time>
      </trkpt>
      <trkpt lat="47.82231" lon="-2.42675">
        <ele>61.398438</ele>
        <time>2014-04-13T10:32:32Z</time>
      </trkpt>
      <trkpt lat="47.82232" lon="-2.42689">
        <ele>61.296875</ele>
        <time>2014-04-13T10:32:40Z</time>
      </trkpt>
      <trkpt lat="47.82231" lon="-2.42704">
        <ele>63.398438</ele>
        <time>2014-04-13T10:32:48Z</time>
      </trkpt>
      <trkpt lat="47.82226" lon="-2.42792">
        <ele>66.296875</ele>
        <time>2014-04-13T10:33:39Z</time>
      </trkpt>
      <trkpt lat="47.82223" lon="-2.42805">
        <ele>64.699219</ele>
        <time>2014-04-13T10:33:46Z</time>
      </trkpt>
      <trkpt lat="47.82214" lon="-2.42843">
        <ele>62.796875</ele>
        <time>2014-04-13T10:34:27Z</time>
      </trkpt>
      <trkpt lat="47.82212" lon="-2.42866">
        <ele>61.597656</ele>
        <time>2014-04-13T10:34:28Z</time>
      </trkpt>
      <trkpt lat="47.82219" lon="-2.42876">
        <ele>60.222656</ele>
        <time>2014-04-13T10:34:42Z</time>
      </trkpt>
      <trkpt lat="47.82228" lon="-2.42879">
        <ele>58.597656</ele>
        <time>2014-04-13T10:35:02Z</time>
      </trkpt>
      <trkpt lat="47.82267" lon="-2.42894">
        <ele>62.296875</ele>
        <time>2014-04-13T10:35:22Z</time>
      </trkpt>
      <trkpt lat="47.82277" lon="-2.42895">
        <ele>64.425781</ele>
        <time>2014-04-13T10:35:34Z</time>
      </trkpt>
      <trkpt lat="47.82286" lon="-2.42891">
        <ele>56.5</ele>
        <time>2014-04-13T10:35:57Z</time>
      </trkpt>
      <trkpt lat="47.82298" lon="-2.42892">
        <ele>54.199219</ele>
        <time>2014-04-13T10:36:29Z</time>
      </trkpt>
      <trkpt lat="47.82309" lon="-2.42888">
        <ele>54.199219</ele>
        <time>2014-04-13T10:37:21Z</time>
      </trkpt>
      <trkpt lat="47.82319" lon="-2.42887">
        <ele>52</ele>
        <time>2014-04-13T10:37:30Z</time>
      </trkpt>
      <trkpt lat="47.82328" lon="-2.42888">
        <ele>51.398438</ele>
        <time>2014-04-13T10:37:39Z</time>
      </trkpt>
      <trkpt lat="47.82338" lon="-2.42886">
        <ele>50.796875</ele>
        <time>2014-04-13T10:37:48Z</time>
      </trkpt>
      <trkpt lat="47.82426" lon="-2.42869">
        <ele>48.898438</ele>
        <time>2014-04-13T10:38:54Z</time>
      </trkpt>
      <trkpt lat="47.82435" lon="-2.42869">
        <ele>49.296875</ele>
        <time>2014-04-13T10:39:04Z</time>
      </trkpt>
      <trkpt lat="47.82445" lon="-2.4287">
        <ele>48.699219</ele>
        <time>2014-04-13T10:39:13Z</time>
      </trkpt>
      <trkpt lat="47.82454" lon="-2.42873">
        <ele>48.898438</ele>
        <time>2014-04-13T10:39:20Z</time>
      </trkpt>
      <trkpt lat="47.82464" lon="-2.42877">
        <ele>46.097656</ele>
        <time>2014-04-13T10:39:27Z</time>
      </trkpt>
      <trkpt lat="47.82473" lon="-2.42882">
        <ele>42.796875</ele>
        <time>2014-04-13T10:39:34Z</time>
      </trkpt>
      <trkpt lat="47.82481" lon="-2.4289">
        <ele>42.296875</ele>
        <time>2014-04-13T10:39:43Z</time>
      </trkpt>
      <trkpt lat="47.82491" lon="-2.42893">
        <ele>42.699219</ele>
        <time>2014-04-13T10:39:51Z</time>
      </trkpt>
      <trkpt lat="47.82501" lon="-2.42899">
        <ele>41.796875</ele>
        <time>2014-04-13T10:39:58Z</time>
      </trkpt>
      <trkpt lat="47.82536" lon="-2.42922">
        <ele>38.097656</ele>
        <time>2014-04-13T10:40:25Z</time>
      </trkpt>
      <trkpt lat="47.82545" lon="-2.42925">
        <ele>38.699219</ele>
        <time>2014-04-13T10:40:32Z</time>
      </trkpt>
      <trkpt lat="47.82581" lon="-2.42943">
        <ele>37.796875</ele>
        <time>2014-04-13T10:41:02Z</time>
      </trkpt>
      <trkpt lat="47.826" lon="-2.42947">
        <ele>39.597656</ele>
        <time>2014-04-13T10:41:19Z</time>
      </trkpt>
      <trkpt lat="47.82609" lon="-2.42954">
        <ele>38.398438</ele>
        <time>2014-04-13T10:41:27Z</time>
      </trkpt>
      <trkpt lat="47.82613" lon="-2.42967">
        <ele>35.5</ele>
        <time>2014-04-13T10:41:36Z</time>
      </trkpt>
      <trkpt lat="47.8262" lon="-2.42992">
        <ele>35.699219</ele>
        <time>2014-04-13T10:41:53Z</time>
      </trkpt>
      <trkpt lat="47.82622" lon="-2.43006">
        <ele>34.097656</ele>
        <time>2014-04-13T10:42:01Z</time>
      </trkpt>
      <trkpt lat="47.82623" lon="-2.4302">
        <ele>32.5</ele>
        <time>2014-04-13T10:42:10Z</time>
      </trkpt>
      <trkpt lat="47.82624" lon="-2.43034">
        <ele>32</ele>
        <time>2014-04-13T10:42:19Z</time>
      </trkpt>
      <trkpt lat="47.82627" lon="-2.43062">
        <ele>33.898438</ele>
        <time>2014-04-13T10:42:38Z</time>
      </trkpt>
      <trkpt lat="47.82627" lon="-2.43076">
        <ele>34.796875</ele>
        <time>2014-04-13T10:42:45Z</time>
      </trkpt>
      <trkpt lat="47.82626" lon="-2.43103">
        <ele>35.597656</ele>
        <time>2014-04-13T10:43:00Z</time>
      </trkpt>
      <trkpt lat="47.82624" lon="-2.43117">
        <ele>36.699219</ele>
        <time>2014-04-13T10:43:09Z</time>
      </trkpt>
      <trkpt lat="47.82622" lon="-2.43131">
        <ele>38.296875</ele>
        <time>2014-04-13T10:43:17Z</time>
      </trkpt>
      <trkpt lat="47.82599" lon="-2.43255">
        <ele>45.898438</ele>
        <time>2014-04-13T10:44:30Z</time>
      </trkpt>
      <trkpt lat="47.82599" lon="-2.43269">
        <ele>46.097656</ele>
        <time>2014-04-13T10:44:45Z</time>
      </trkpt>
      <trkpt lat="47.82599" lon="-2.43297">
        <ele>44.199219</ele>
        <time>2014-04-13T10:45:02Z</time>
      </trkpt>
      <trkpt lat="47.826" lon="-2.4331">
        <ele>43</ele>
        <time>2014-04-13T10:45:10Z</time>
      </trkpt>
      <trkpt lat="47.82607" lon="-2.43367">
        <ele>41.398438</ele>
        <time>2014-04-13T10:45:44Z</time>
      </trkpt>
      <trkpt lat="47.8261" lon="-2.4338">
        <ele>41.097656</ele>
        <time>2014-04-13T10:45:53Z</time>
      </trkpt>
      <trkpt lat="47.82619" lon="-2.43385">
        <ele>42.199219</ele>
        <time>2014-04-13T10:46:01Z</time>
      </trkpt>
      <trkpt lat="47.82628" lon="-2.43386">
        <ele>43.199219</ele>
        <time>2014-04-13T10:46:10Z</time>
      </trkpt>
      <trkpt lat="47.82638" lon="-2.43387">
        <ele>43.796875</ele>
        <time>2014-04-13T10:46:19Z</time>
      </trkpt>
      <trkpt lat="47.82666" lon="-2.43396">
        <ele>47.097656</ele>
        <time>2014-04-13T10:46:43Z</time>
      </trkpt>
      <trkpt lat="47.82804" lon="-2.4345">
        <ele>43.199219</ele>
        <time>2014-04-13T10:48:44Z</time>
      </trkpt>
      <trkpt lat="47.82813" lon="-2.43455">
        <ele>42.398438</ele>
        <time>2014-04-13T10:48:52Z</time>
      </trkpt>
      <trkpt lat="47.82822" lon="-2.43461">
        <ele>41.296875</ele>
        <time>2014-04-13T10:49:00Z</time>
      </trkpt>
      <trkpt lat="47.82832" lon="-2.43464">
        <ele>42.199219</ele>
        <time>2014-04-13T10:49:08Z</time>
      </trkpt>
      <trkpt lat="47.8284" lon="-2.4347">
        <ele>42.097656</ele>
        <time>2014-04-13T10:49:34Z</time>
      </trkpt>
      <trkpt lat="47.8285" lon="-2.43473">
        <ele>41.796875</ele>
        <time>2014-04-13T10:49:42Z</time>
      </trkpt>
      <trkpt lat="47.82858" lon="-2.43481">
        <ele>40.398438</ele>
        <time>2014-04-13T10:49:51Z</time>
      </trkpt>
      <trkpt lat="47.8286" lon="-2.43495">
        <ele>38.597656</ele>
        <time>2014-04-13T10:50:00Z</time>
      </trkpt>
      <trkpt lat="47.82862" lon="-2.43523">
        <ele>34.199219</ele>
        <time>2014-04-13T10:50:19Z</time>
      </trkpt>
      <trkpt lat="47.82874" lon="-2.43705">
        <ele>19.5</ele>
        <time>2014-04-13T10:52:15Z</time>
      </trkpt>
      <trkpt lat="47.82874" lon="-2.43719">
        <ele>20.796875</ele>
        <time>2014-04-13T10:52:25Z</time>
      </trkpt>
      <trkpt lat="47.82874" lon="-2.43733">
        <ele>19.796875</ele>
        <time>2014-04-13T10:52:42Z</time>
      </trkpt>
      <trkpt lat="47.82867" lon="-2.43742">
        <ele>22.699219</ele>
        <time>2014-04-13T10:52:59Z</time>
      </trkpt>
      <trkpt lat="47.82859" lon="-2.43737">
        <ele>23.5</ele>
        <time>2014-04-13T10:53:10Z</time>
      </trkpt>
      <trkpt lat="47.82851" lon="-2.43729">
        <ele>23.199219</ele>
        <time>2014-04-13T10:53:22Z</time>
      </trkpt>
      <trkpt lat="47.82858" lon="-2.43738">
        <ele>25.796875</ele>
        <time>2014-04-13T10:53:41Z</time>
      </trkpt>
      <trkpt lat="47.82866" lon="-2.43746">
        <ele>27.097656</ele>
        <time>2014-04-13T10:53:52Z</time>
      </trkpt>
      <trkpt lat="47.82872" lon="-2.43757">
        <ele>27.199219</ele>
        <time>2014-04-13T10:54:05Z</time>
      </trkpt>
      <trkpt lat="47.82872" lon="-2.43772">
        <ele>25.898438</ele>
        <time>2014-04-13T10:54:14Z</time>
      </trkpt>
      <trkpt lat="47.82874" lon="-2.43856">
        <ele>24.398438</ele>
        <time>2014-04-13T10:55:04Z</time>
      </trkpt>
      <trkpt lat="47.82882" lon="-2.43997">
        <ele>20.796875</ele>
        <time>2014-04-13T10:56:18Z</time>
      </trkpt>
      <trkpt lat="47.82883" lon="-2.44011">
        <ele>22.699219</ele>
        <time>2014-04-13T10:56:26Z</time>
      </trkpt>
      <trkpt lat="47.82888" lon="-2.44024">
        <ele>26.597656</ele>
        <time>2014-04-13T10:56:36Z</time>
      </trkpt>
      <trkpt lat="47.82897" lon="-2.44022">
        <ele>27.097656</ele>
        <time>2014-04-13T10:56:50Z</time>
      </trkpt>
      <trkpt lat="47.82907" lon="-2.44018">
        <ele>26.898438</ele>
        <time>2014-04-13T10:57:03Z</time>
      </trkpt>
      <trkpt lat="47.82916" lon="-2.44016">
        <ele>28.097656</ele>
        <time>2014-04-13T10:57:13Z</time>
      </trkpt>
      <trkpt lat="47.82925" lon="-2.44016">
        <ele>28.898438</ele>
        <time>2014-04-13T10:57:21Z</time>
      </trkpt>
      <trkpt lat="47.82954" lon="-2.44015">
        <ele>26.699219</ele>
        <time>2014-04-13T10:57:45Z</time>
      </trkpt>
      <trkpt lat="47.82963" lon="-2.44013">
        <ele>27.296875</ele>
        <time>2014-04-13T10:57:52Z</time>
      </trkpt>
      <trkpt lat="47.82992" lon="-2.44011">
        <ele>29.898438</ele>
        <time>2014-04-13T10:58:17Z</time>
      </trkpt>
      <trkpt lat="47.83002" lon="-2.44013">
        <ele>28.199219</ele>
        <time>2014-04-13T10:58:26Z</time>
      </trkpt>
      <trkpt lat="47.83011" lon="-2.44016">
        <ele>28.296875</ele>
        <time>2014-04-13T10:58:34Z</time>
      </trkpt>
      <trkpt lat="47.8302" lon="-2.4402">
        <ele>29.398438</ele>
        <time>2014-04-13T10:58:41Z</time>
      </trkpt>
      <trkpt lat="47.83028" lon="-2.44026">
        <ele>30.5</ele>
        <time>2014-04-13T10:58:48Z</time>
      </trkpt>
      <trkpt lat="47.83036" lon="-2.44034">
        <ele>31.597656</ele>
        <time>2014-04-13T10:58:56Z</time>
      </trkpt>
      <trkpt lat="47.83042" lon="-2.44045">
        <ele>31.199219</ele>
        <time>2014-04-13T10:59:04Z</time>
      </trkpt>
      <trkpt lat="47.83047" lon="-2.44057">
        <ele>30.398438</ele>
        <time>2014-04-13T10:59:13Z</time>
      </trkpt>
      <trkpt lat="47.83049" lon="-2.44071">
        <ele>29</ele>
        <time>2014-04-13T10:59:22Z</time>
      </trkpt>
      <trkpt lat="47.83052" lon="-2.44099">
        <ele>27.199219</ele>
        <time>2014-04-13T10:59:41Z</time>
      </trkpt>
      <trkpt lat="47.83056" lon="-2.44111">
        <ele>29</ele>
        <time>2014-04-13T10:59:49Z</time>
      </trkpt>
      <trkpt lat="47.83063" lon="-2.44121">
        <ele>33.097656</ele>
        <time>2014-04-13T10:59:59Z</time>
      </trkpt>
      <trkpt lat="47.83071" lon="-2.44127">
        <ele>35.097656</ele>
        <time>2014-04-13T11:00:08Z</time>
      </trkpt>
      <trkpt lat="47.83113" lon="-2.44161">
        <ele>34.796875</ele>
        <time>2014-04-13T11:00:50Z</time>
      </trkpt>
      <trkpt lat="47.83145" lon="-2.44193">
        <ele>35.597656</ele>
        <time>2014-04-13T11:01:23Z</time>
      </trkpt>
      <trkpt lat="47.83155" lon="-2.44197">
        <ele>37.597656</ele>
        <time>2014-04-13T11:01:32Z</time>
      </trkpt>
      <trkpt lat="47.83164" lon="-2.442">
        <ele>37.296875</ele>
        <time>2014-04-13T11:01:42Z</time>
      </trkpt>
      <trkpt lat="47.83173" lon="-2.44201">
        <ele>32.398438</ele>
        <time>2014-04-13T11:01:50Z</time>
      </trkpt>
      <trkpt lat="47.83201" lon="-2.44204">
        <ele>28.199219</ele>
        <time>2014-04-13T11:02:26Z</time>
      </trkpt>
      <trkpt lat="47.83224" lon="-2.4421">
        <ele>30.296875</ele>
        <time>2014-04-13T11:02:44Z</time>
      </trkpt>
      <trkpt lat="47.83234" lon="-2.44214">
        <ele>28.34375</ele>
        <time>2014-04-13T11:03:08Z</time>
      </trkpt>
      <trkpt lat="47.83239" lon="-2.44226">
        <ele>26.46875</ele>
        <time>2014-04-13T11:03:30Z</time>
      </trkpt>
      <trkpt lat="47.83245" lon="-2.44235">
        <ele>30.707031</ele>
        <time>2014-04-13T11:04:04Z</time>
      </trkpt>
      <trkpt lat="47.83265" lon="-2.44244">
        <ele>32.347656</ele>
        <time>2014-04-13T11:04:38Z</time>
      </trkpt>
      <trkpt lat="47.83267" lon="-2.44231">
        <ele>40.699219</ele>
        <time>2014-04-13T11:06:08Z</time>
      </trkpt>
      <trkpt lat="47.83275" lon="-2.44237">
        <ele>37.238281</ele>
        <time>2014-04-13T11:07:03Z</time>
      </trkpt>
      <trkpt lat="47.83266" lon="-2.44236">
        <ele>43.816406</ele>
        <time>2014-04-13T11:11:14Z</time>
      </trkpt>
      <trkpt lat="47.83257" lon="-2.44236">
        <ele>31.269531</ele>
        <time>2014-04-13T11:20:40Z</time>
      </trkpt>
      <trkpt lat="47.83267" lon="-2.44235">
        <ele>33.226563</ele>
        <time>2014-04-13T11:44:10Z</time>
      </trkpt>
      <trkpt lat="47.83276" lon="-2.44235">
        <ele>29.523438</ele>
        <time>2014-04-13T11:46:42Z</time>
      </trkpt>
      <trkpt lat="47.83267" lon="-2.44237">
        <ele>23.199219</ele>
        <time>2014-04-13T11:47:19Z</time>
      </trkpt>
      <trkpt lat="47.83277" lon="-2.44243">
        <ele>21.199219</ele>
        <time>2014-04-13T11:51:33Z</time>
      </trkpt>
      <trkpt lat="47.83286" lon="-2.44246">
        <ele>21.253906</ele>
        <time>2014-04-13T11:51:49Z</time>
      </trkpt>
      <trkpt lat="47.83295" lon="-2.44247">
        <ele>20.097656</ele>
        <time>2014-04-13T11:52:05Z</time>
      </trkpt>
      <trkpt lat="47.83315" lon="-2.44245">
        <ele>18.699219</ele>
        <time>2014-04-13T11:52:21Z</time>
      </trkpt>
      <trkpt lat="47.83324" lon="-2.44248">
        <ele>22.097656</ele>
        <time>2014-04-13T11:52:33Z</time>
      </trkpt>
      <trkpt lat="47.83333" lon="-2.44253">
        <ele>22.5</ele>
        <time>2014-04-13T11:52:44Z</time>
      </trkpt>
      <trkpt lat="47.83341" lon="-2.44259">
        <ele>21</ele>
        <time>2014-04-13T11:52:53Z</time>
      </trkpt>
      <trkpt lat="47.83346" lon="-2.44271">
        <ele>18.898438</ele>
        <time>2014-04-13T11:53:02Z</time>
      </trkpt>
      <trkpt lat="47.83348" lon="-2.44285">
        <ele>19.898438</ele>
        <time>2014-04-13T11:53:15Z</time>
      </trkpt>
      <trkpt lat="47.83352" lon="-2.44298">
        <ele>22.398438</ele>
        <time>2014-04-13T11:53:25Z</time>
      </trkpt>
      <trkpt lat="47.83359" lon="-2.44308">
        <ele>26.699219</ele>
        <time>2014-04-13T11:53:35Z</time>
      </trkpt>
      <trkpt lat="47.83367" lon="-2.44315">
        <ele>29.296875</ele>
        <time>2014-04-13T11:53:46Z</time>
      </trkpt>
      <trkpt lat="47.83376" lon="-2.4432">
        <ele>31.199219</ele>
        <time>2014-04-13T11:53:56Z</time>
      </trkpt>
      <trkpt lat="47.83381" lon="-2.44309">
        <ele>27.097656</ele>
        <time>2014-04-13T11:54:10Z</time>
      </trkpt>
      <trkpt lat="47.83384" lon="-2.44296">
        <ele>28.5</ele>
        <time>2014-04-13T11:54:22Z</time>
      </trkpt>
      <trkpt lat="47.83382" lon="-2.44282">
        <ele>29.796875</ele>
        <time>2014-04-13T11:54:32Z</time>
      </trkpt>
      <trkpt lat="47.83378" lon="-2.44254">
        <ele>29.597656</ele>
        <time>2014-04-13T11:54:50Z</time>
      </trkpt>
      <trkpt lat="47.83379" lon="-2.4424">
        <ele>29.097656</ele>
        <time>2014-04-13T11:55:00Z</time>
      </trkpt>
      <trkpt lat="47.83381" lon="-2.44225">
        <ele>27.597656</ele>
        <time>2014-04-13T11:55:08Z</time>
      </trkpt>
      <trkpt lat="47.83384" lon="-2.44211">
        <ele>27.199219</ele>
        <time>2014-04-13T11:55:16Z</time>
      </trkpt>
      <trkpt lat="47.83388" lon="-2.44199">
        <ele>27.398438</ele>
        <time>2014-04-13T11:55:25Z</time>
      </trkpt>
      <trkpt lat="47.83392" lon="-2.44186">
        <ele>27.398438</ele>
        <time>2014-04-13T11:55:33Z</time>
      </trkpt>
      <trkpt lat="47.83394" lon="-2.44172">
        <ele>27.097656</ele>
        <time>2014-04-13T11:55:43Z</time>
      </trkpt>
      <trkpt lat="47.83399" lon="-2.44161">
        <ele>29.296875</ele>
        <time>2014-04-13T11:55:51Z</time>
      </trkpt>
      <trkpt lat="47.83412" lon="-2.44124">
        <ele>31.199219</ele>
        <time>2014-04-13T11:56:15Z</time>
      </trkpt>
      <trkpt lat="47.83414" lon="-2.44111">
        <ele>29.597656</ele>
        <time>2014-04-13T11:56:21Z</time>
      </trkpt>
      <trkpt lat="47.8342" lon="-2.441">
        <ele>29.796875</ele>
        <time>2014-04-13T11:56:28Z</time>
      </trkpt>
      <trkpt lat="47.8343" lon="-2.44075">
        <ele>31</ele>
        <time>2014-04-13T11:56:42Z</time>
      </trkpt>
      <trkpt lat="47.83434" lon="-2.44062">
        <ele>30.683594</ele>
        <time>2014-04-13T11:56:49Z</time>
      </trkpt>
      <trkpt lat="47.83437" lon="-2.44049">
        <ele>34.199219</ele>
        <time>2014-04-13T11:57:02Z</time>
      </trkpt>
      <trkpt lat="47.83437" lon="-2.44034">
        <ele>31.398438</ele>
        <time>2014-04-13T11:57:13Z</time>
      </trkpt>
      <trkpt lat="47.83441" lon="-2.44021">
        <ele>30.097656</ele>
        <time>2014-04-13T11:57:24Z</time>
      </trkpt>
      <trkpt lat="47.83443" lon="-2.44007">
        <ele>30.699219</ele>
        <time>2014-04-13T11:57:33Z</time>
      </trkpt>
      <trkpt lat="47.83442" lon="-2.43994">
        <ele>31.097656</ele>
        <time>2014-04-13T11:57:40Z</time>
      </trkpt>
      <trkpt lat="47.83441" lon="-2.4398">
        <ele>32.898438</ele>
        <time>2014-04-13T11:57:48Z</time>
      </trkpt>
      <trkpt lat="47.83437" lon="-2.43966">
        <ele>33.898438</ele>
        <time>2014-04-13T11:57:55Z</time>
      </trkpt>
      <trkpt lat="47.83431" lon="-2.43941">
        <ele>37.097656</ele>
        <time>2014-04-13T11:58:12Z</time>
      </trkpt>
      <trkpt lat="47.83424" lon="-2.4393">
        <ele>35.5</ele>
        <time>2014-04-13T11:58:20Z</time>
      </trkpt>
      <trkpt lat="47.83416" lon="-2.43916">
        <ele>34.097656</ele>
        <time>2014-04-13T11:58:30Z</time>
      </trkpt>
      <trkpt lat="47.83408" lon="-2.43907">
        <ele>35.097656</ele>
        <time>2014-04-13T11:58:37Z</time>
      </trkpt>
      <trkpt lat="47.834" lon="-2.43901">
        <ele>34.5</ele>
        <time>2014-04-13T11:58:44Z</time>
      </trkpt>
      <trkpt lat="47.83392" lon="-2.43895">
        <ele>33.296875</ele>
        <time>2014-04-13T11:58:52Z</time>
      </trkpt>
      <trkpt lat="47.83383" lon="-2.43892">
        <ele>30.097656</ele>
        <time>2014-04-13T11:59:00Z</time>
      </trkpt>
      <trkpt lat="47.83373" lon="-2.4389">
        <ele>27.5</ele>
        <time>2014-04-13T11:59:10Z</time>
      </trkpt>
      <trkpt lat="47.83345" lon="-2.4388">
        <ele>24.597656</ele>
        <time>2014-04-13T11:59:34Z</time>
      </trkpt>
      <trkpt lat="47.83337" lon="-2.43874">
        <ele>25</ele>
        <time>2014-04-13T11:59:43Z</time>
      </trkpt>
      <trkpt lat="47.83329" lon="-2.43866">
        <ele>25.199219</ele>
        <time>2014-04-13T11:59:51Z</time>
      </trkpt>
      <trkpt lat="47.83321" lon="-2.43858">
        <ele>24.898438</ele>
        <time>2014-04-13T11:59:59Z</time>
      </trkpt>
      <trkpt lat="47.83314" lon="-2.43848">
        <ele>22.597656</ele>
        <time>2014-04-13T12:00:07Z</time>
      </trkpt>
      <trkpt lat="47.83307" lon="-2.43837">
        <ele>15.796875</ele>
        <time>2014-04-13T12:00:15Z</time>
      </trkpt>
      <trkpt lat="47.83299" lon="-2.43823">
        <ele>12.898438</ele>
        <time>2014-04-13T12:00:27Z</time>
      </trkpt>
      <trkpt lat="47.83294" lon="-2.43811">
        <ele>10.199219</ele>
        <time>2014-04-13T12:00:34Z</time>
      </trkpt>
      <trkpt lat="47.8329" lon="-2.43798">
        <ele>9.097656</ele>
        <time>2014-04-13T12:00:42Z</time>
      </trkpt>
      <trkpt lat="47.83287" lon="-2.43785">
        <ele>8.417969</ele>
        <time>2014-04-13T12:00:50Z</time>
      </trkpt>
      <trkpt lat="47.83282" lon="-2.43774">
        <ele>0.898438</ele>
        <time>2014-04-13T12:01:02Z</time>
      </trkpt>
      <trkpt lat="47.83283" lon="-2.43758">
        <ele>0.5</ele>
        <time>2014-04-13T12:01:35Z</time>
      </trkpt>
      <trkpt lat="47.83283" lon="-2.43744">
        <ele>0.699219</ele>
        <time>2014-04-13T12:01:46Z</time>
      </trkpt>
      <trkpt lat="47.8328" lon="-2.43731">
        <ele>1.5</ele>
        <time>2014-04-13T12:01:54Z</time>
      </trkpt>
      <trkpt lat="47.83277" lon="-2.43718">
        <ele>2.699219</ele>
        <time>2014-04-13T12:02:01Z</time>
      </trkpt>
      <trkpt lat="47.83277" lon="-2.43704">
        <ele>4.296875</ele>
        <time>2014-04-13T12:02:09Z</time>
      </trkpt>
      <trkpt lat="47.83277" lon="-2.4369">
        <ele>7.097656</ele>
        <time>2014-04-13T12:02:16Z</time>
      </trkpt>
      <trkpt lat="47.8328" lon="-2.43676">
        <ele>10.199219</ele>
        <time>2014-04-13T12:02:23Z</time>
      </trkpt>
      <trkpt lat="47.83285" lon="-2.43664">
        <ele>13</ele>
        <time>2014-04-13T12:02:32Z</time>
      </trkpt>
      <trkpt lat="47.83293" lon="-2.43657">
        <ele>16.898438</ele>
        <time>2014-04-13T12:02:42Z</time>
      </trkpt>
      <trkpt lat="47.83302" lon="-2.43653">
        <ele>20.199219</ele>
        <time>2014-04-13T12:02:51Z</time>
      </trkpt>
      <trkpt lat="47.83312" lon="-2.4365">
        <ele>23.898438</ele>
        <time>2014-04-13T12:03:00Z</time>
      </trkpt>
      <trkpt lat="47.83321" lon="-2.43648">
        <ele>26</ele>
        <time>2014-04-13T12:03:07Z</time>
      </trkpt>
      <trkpt lat="47.83341" lon="-2.43649">
        <ele>29.398438</ele>
        <time>2014-04-13T12:03:23Z</time>
      </trkpt>
      <trkpt lat="47.8335" lon="-2.43646">
        <ele>29.699219</ele>
        <time>2014-04-13T12:03:31Z</time>
      </trkpt>
      <trkpt lat="47.8336" lon="-2.43644">
        <ele>27.929688</ele>
        <time>2014-04-13T12:03:38Z</time>
      </trkpt>
      <trkpt lat="47.83369" lon="-2.43642">
        <ele>27</ele>
        <time>2014-04-13T12:03:49Z</time>
      </trkpt>
      <trkpt lat="47.83389" lon="-2.43641">
        <ele>28.597656</ele>
        <time>2014-04-13T12:04:08Z</time>
      </trkpt>
      <trkpt lat="47.83398" lon="-2.43642">
        <ele>28.199219</ele>
        <time>2014-04-13T12:04:16Z</time>
      </trkpt>
      <trkpt lat="47.83407" lon="-2.43645">
        <ele>26.796875</ele>
        <time>2014-04-13T12:04:23Z</time>
      </trkpt>
      <trkpt lat="47.83435" lon="-2.43654">
        <ele>27.898438</ele>
        <time>2014-04-13T12:04:44Z</time>
      </trkpt>
      <trkpt lat="47.83444" lon="-2.4366">
        <ele>29.5</ele>
        <time>2014-04-13T12:04:51Z</time>
      </trkpt>
      <trkpt lat="47.83453" lon="-2.43668">
        <ele>31.199219</ele>
        <time>2014-04-13T12:04:59Z</time>
      </trkpt>
      <trkpt lat="47.83461" lon="-2.43675">
        <ele>33.597656</ele>
        <time>2014-04-13T12:05:07Z</time>
      </trkpt>
      <trkpt lat="47.83471" lon="-2.43678">
        <ele>33.199219</ele>
        <time>2014-04-13T12:05:14Z</time>
      </trkpt>
      <trkpt lat="47.83481" lon="-2.43677">
        <ele>30.898438</ele>
        <time>2014-04-13T12:05:22Z</time>
      </trkpt>
      <trkpt lat="47.83596" lon="-2.4365">
        <ele>16.699219</ele>
        <time>2014-04-13T12:06:49Z</time>
      </trkpt>
      <trkpt lat="47.83605" lon="-2.43647">
        <ele>16</ele>
        <time>2014-04-13T12:06:56Z</time>
      </trkpt>
      <trkpt lat="47.83615" lon="-2.43645">
        <ele>15.898438</ele>
        <time>2014-04-13T12:07:03Z</time>
      </trkpt>
      <trkpt lat="47.83624" lon="-2.43639">
        <ele>15</ele>
        <time>2014-04-13T12:07:12Z</time>
      </trkpt>
      <trkpt lat="47.83633" lon="-2.43636">
        <ele>15.296875</ele>
        <time>2014-04-13T12:07:19Z</time>
      </trkpt>
      <trkpt lat="47.83641" lon="-2.43628">
        <ele>15.597656</ele>
        <time>2014-04-13T12:07:28Z</time>
      </trkpt>
      <trkpt lat="47.83647" lon="-2.43618">
        <ele>14.597656</ele>
        <time>2014-04-13T12:07:38Z</time>
      </trkpt>
      <trkpt lat="47.83652" lon="-2.43607">
        <ele>14.097656</ele>
        <time>2014-04-13T12:07:48Z</time>
      </trkpt>
      <trkpt lat="47.83659" lon="-2.43596">
        <ele>13.5</ele>
        <time>2014-04-13T12:07:57Z</time>
      </trkpt>
      <trkpt lat="47.83679" lon="-2.43566">
        <ele>14.199219</ele>
        <time>2014-04-13T12:08:19Z</time>
      </trkpt>
      <trkpt lat="47.83688" lon="-2.43554">
        <ele>15.296875</ele>
        <time>2014-04-13T12:08:34Z</time>
      </trkpt>
      <trkpt lat="47.8369" lon="-2.43541">
        <ele>16.398438</ele>
        <time>2014-04-13T12:08:42Z</time>
      </trkpt>
      <trkpt lat="47.8369" lon="-2.43526">
        <ele>16.5</ele>
        <time>2014-04-13T12:08:51Z</time>
      </trkpt>
      <trkpt lat="47.83688" lon="-2.43512">
        <ele>16</ele>
        <time>2014-04-13T12:08:59Z</time>
      </trkpt>
      <trkpt lat="47.83686" lon="-2.43498">
        <ele>15.597656</ele>
        <time>2014-04-13T12:09:07Z</time>
      </trkpt>
      <trkpt lat="47.83682" lon="-2.43484">
        <ele>15.097656</ele>
        <time>2014-04-13T12:09:14Z</time>
      </trkpt>
      <trkpt lat="47.8368" lon="-2.43471">
        <ele>15</ele>
        <time>2014-04-13T12:09:21Z</time>
      </trkpt>
      <trkpt lat="47.83677" lon="-2.43457">
        <ele>14.699219</ele>
        <time>2014-04-13T12:09:28Z</time>
      </trkpt>
      <trkpt lat="47.83667" lon="-2.43415">
        <ele>12.898438</ele>
        <time>2014-04-13T12:09:50Z</time>
      </trkpt>
      <trkpt lat="47.83666" lon="-2.43401">
        <ele>12.199219</ele>
        <time>2014-04-13T12:09:57Z</time>
      </trkpt>
      <trkpt lat="47.83658" lon="-2.433">
        <ele>11.796875</ele>
        <time>2014-04-13T12:10:53Z</time>
      </trkpt>
      <trkpt lat="47.83656" lon="-2.43287">
        <ele>11.699219</ele>
        <time>2014-04-13T12:11:00Z</time>
      </trkpt>
      <trkpt lat="47.83646" lon="-2.43215">
        <ele>12.796875</ele>
        <time>2014-04-13T12:11:33Z</time>
      </trkpt>
      <trkpt lat="47.83642" lon="-2.43172">
        <ele>13.898438</ele>
        <time>2014-04-13T12:11:57Z</time>
      </trkpt>
      <trkpt lat="47.83647" lon="-2.43161">
        <ele>10.296875</ele>
        <time>2014-04-13T12:12:07Z</time>
      </trkpt>
      <trkpt lat="47.83657" lon="-2.43161">
        <ele>8.398438</ele>
        <time>2014-04-13T12:12:23Z</time>
      </trkpt>
      <trkpt lat="47.83666" lon="-2.43166">
        <ele>7.796875</ele>
        <time>2014-04-13T12:12:31Z</time>
      </trkpt>
      <trkpt lat="47.83711" lon="-2.43195">
        <ele>11</ele>
        <time>2014-04-13T12:13:10Z</time>
      </trkpt>
      <trkpt lat="47.83719" lon="-2.43201">
        <ele>10.898438</ele>
        <time>2014-04-13T12:13:20Z</time>
      </trkpt>
      <trkpt lat="47.83752" lon="-2.4323">
        <ele>20.199219</ele>
        <time>2014-04-13T12:13:57Z</time>
      </trkpt>
      <trkpt lat="47.83759" lon="-2.43239">
        <ele>23.199219</ele>
        <time>2014-04-13T12:14:06Z</time>
      </trkpt>
      <trkpt lat="47.83767" lon="-2.43247">
        <ele>24.296875</ele>
        <time>2014-04-13T12:14:14Z</time>
      </trkpt>
      <trkpt lat="47.83775" lon="-2.43253">
        <ele>23.199219</ele>
        <time>2014-04-13T12:14:21Z</time>
      </trkpt>
      <trkpt lat="47.83784" lon="-2.43256">
        <ele>22.097656</ele>
        <time>2014-04-13T12:14:27Z</time>
      </trkpt>
      <trkpt lat="47.83794" lon="-2.43258">
        <ele>20.597656</ele>
        <time>2014-04-13T12:14:34Z</time>
      </trkpt>
      <trkpt lat="47.83803" lon="-2.4325">
        <ele>15.699219</ele>
        <time>2014-04-13T12:14:44Z</time>
      </trkpt>
      <trkpt lat="47.8381" lon="-2.43241">
        <ele>12.796875</ele>
        <time>2014-04-13T12:14:55Z</time>
      </trkpt>
      <trkpt lat="47.83819" lon="-2.43237">
        <ele>11.199219</ele>
        <time>2014-04-13T12:15:05Z</time>
      </trkpt>
      <trkpt lat="47.83827" lon="-2.4323">
        <ele>10.898438</ele>
        <time>2014-04-13T12:15:16Z</time>
      </trkpt>
      <trkpt lat="47.83836" lon="-2.43223">
        <ele>12.699219</ele>
        <time>2014-04-13T12:15:24Z</time>
      </trkpt>
      <trkpt lat="47.83843" lon="-2.43214">
        <ele>12.398438</ele>
        <time>2014-04-13T12:15:31Z</time>
      </trkpt>
      <trkpt lat="47.83852" lon="-2.43205">
        <ele>12.296875</ele>
        <time>2014-04-13T12:15:38Z</time>
      </trkpt>
      <trkpt lat="47.8386" lon="-2.43198">
        <ele>12.597656</ele>
        <time>2014-04-13T12:15:45Z</time>
      </trkpt>
      <trkpt lat="47.83868" lon="-2.43192">
        <ele>13.097656</ele>
        <time>2014-04-13T12:15:51Z</time>
      </trkpt>
      <trkpt lat="47.83913" lon="-2.43168">
        <ele>13.796875</ele>
        <time>2014-04-13T12:16:26Z</time>
      </trkpt>
      <trkpt lat="47.83922" lon="-2.43164">
        <ele>14.796875</ele>
        <time>2014-04-13T12:16:32Z</time>
      </trkpt>
      <trkpt lat="47.83941" lon="-2.43157">
        <ele>19.097656</ele>
        <time>2014-04-13T12:16:52Z</time>
      </trkpt>
      <trkpt lat="47.8395" lon="-2.43162">
        <ele>19.296875</ele>
        <time>2014-04-13T12:19:08Z</time>
      </trkpt>
      <trkpt lat="47.83958" lon="-2.4317">
        <ele>18.828125</ele>
        <time>2014-04-13T12:19:16Z</time>
      </trkpt>
      <trkpt lat="47.83967" lon="-2.4317">
        <ele>21</ele>
        <time>2014-04-13T12:19:47Z</time>
      </trkpt>
      <trkpt lat="47.83977" lon="-2.43166">
        <ele>22.746094</ele>
        <time>2014-04-13T12:20:02Z</time>
      </trkpt>
      <trkpt lat="47.83986" lon="-2.43164">
        <ele>14.199219</ele>
        <time>2014-04-13T12:20:36Z</time>
      </trkpt>
      <trkpt lat="47.8398" lon="-2.43152">
        <ele>15.5</ele>
        <time>2014-04-13T12:21:43Z</time>
      </trkpt>
      <trkpt lat="47.83972" lon="-2.43145">
        <ele>15.097656</ele>
        <time>2014-04-13T12:21:52Z</time>
      </trkpt>
      <trkpt lat="47.83974" lon="-2.43159">
        <ele>16.296875</ele>
        <time>2014-04-13T12:22:26Z</time>
      </trkpt>
      <trkpt lat="47.83979" lon="-2.43172">
        <ele>17.097656</ele>
        <time>2014-04-13T12:22:41Z</time>
      </trkpt>
      <trkpt lat="47.83984" lon="-2.43184">
        <ele>17.898438</ele>
        <time>2014-04-13T12:22:52Z</time>
      </trkpt>
      <trkpt lat="47.84008" lon="-2.43227">
        <ele>24.199219</ele>
        <time>2014-04-13T12:23:24Z</time>
      </trkpt>
      <trkpt lat="47.84026" lon="-2.4326">
        <ele>28.5</ele>
        <time>2014-04-13T12:23:52Z</time>
      </trkpt>
      <trkpt lat="47.84033" lon="-2.43269">
        <ele>28.597656</ele>
        <time>2014-04-13T12:24:00Z</time>
      </trkpt>
      <trkpt lat="47.84053" lon="-2.433">
        <ele>23.097656</ele>
        <time>2014-04-13T12:24:24Z</time>
      </trkpt>
      <trkpt lat="47.8406" lon="-2.43309">
        <ele>22.097656</ele>
        <time>2014-04-13T12:24:32Z</time>
      </trkpt>
      <trkpt lat="47.84074" lon="-2.43326">
        <ele>16.296875</ele>
        <time>2014-04-13T12:24:59Z</time>
      </trkpt>
      <trkpt lat="47.84083" lon="-2.43319">
        <ele>18.699219</ele>
        <time>2014-04-13T12:25:18Z</time>
      </trkpt>
      <trkpt lat="47.84089" lon="-2.43309">
        <ele>20.796875</ele>
        <time>2014-04-13T12:25:25Z</time>
      </trkpt>
      <trkpt lat="47.84095" lon="-2.43298">
        <ele>23.199219</ele>
        <time>2014-04-13T12:25:32Z</time>
      </trkpt>
      <trkpt lat="47.84105" lon="-2.43276">
        <ele>24.097656</ele>
        <time>2014-04-13T12:25:46Z</time>
      </trkpt>
      <trkpt lat="47.84108" lon="-2.43263">
        <ele>23</ele>
        <time>2014-04-13T12:25:55Z</time>
      </trkpt>
      <trkpt lat="47.84105" lon="-2.4325">
        <ele>21.597656</ele>
        <time>2014-04-13T12:26:06Z</time>
      </trkpt>
      <trkpt lat="47.841" lon="-2.43236">
        <ele>19.5</ele>
        <time>2014-04-13T12:26:16Z</time>
      </trkpt>
      <trkpt lat="47.84095" lon="-2.43224">
        <ele>32.597656</ele>
        <time>2014-04-13T12:26:24Z</time>
      </trkpt>
      <trkpt lat="47.84091" lon="-2.43211">
        <ele>28.199219</ele>
        <time>2014-04-13T12:28:00Z</time>
      </trkpt>
      <trkpt lat="47.84078" lon="-2.43157">
        <ele>7.699219</ele>
        <time>2014-04-13T12:28:33Z</time>
      </trkpt>
      <trkpt lat="47.84076" lon="-2.43142">
        <ele>8.699219</ele>
        <time>2014-04-13T12:28:52Z</time>
      </trkpt>
      <trkpt lat="47.84075" lon="-2.43127">
        <ele>10.597656</ele>
        <time>2014-04-13T12:29:06Z</time>
      </trkpt>
      <trkpt lat="47.84075" lon="-2.43112">
        <ele>12.097656</ele>
        <time>2014-04-13T12:29:16Z</time>
      </trkpt>
      <trkpt lat="47.84076" lon="-2.43098">
        <ele>11.898438</ele>
        <time>2014-04-13T12:29:25Z</time>
      </trkpt>
      <trkpt lat="47.84076" lon="-2.43084">
        <ele>13.796875</ele>
        <time>2014-04-13T12:29:33Z</time>
      </trkpt>
      <trkpt lat="47.84079" lon="-2.4307">
        <ele>15.699219</ele>
        <time>2014-04-13T12:29:42Z</time>
      </trkpt>
      <trkpt lat="47.84081" lon="-2.43055">
        <ele>17</ele>
        <time>2014-04-13T12:29:51Z</time>
      </trkpt>
      <trkpt lat="47.84085" lon="-2.43043">
        <ele>18.097656</ele>
        <time>2014-04-13T12:29:59Z</time>
      </trkpt>
      <trkpt lat="47.84087" lon="-2.4303">
        <ele>19.898438</ele>
        <time>2014-04-13T12:30:08Z</time>
      </trkpt>
      <trkpt lat="47.84091" lon="-2.43001">
        <ele>21.699219</ele>
        <time>2014-04-13T12:30:25Z</time>
      </trkpt>
      <trkpt lat="47.84094" lon="-2.42988">
        <ele>20.699219</ele>
        <time>2014-04-13T12:30:33Z</time>
      </trkpt>
      <trkpt lat="47.84094" lon="-2.42974">
        <ele>22.097656</ele>
        <time>2014-04-13T12:30:41Z</time>
      </trkpt>
      <trkpt lat="47.84091" lon="-2.4296">
        <ele>22.699219</ele>
        <time>2014-04-13T12:30:49Z</time>
      </trkpt>
      <trkpt lat="47.84087" lon="-2.42947">
        <ele>23.199219</ele>
        <time>2014-04-13T12:30:57Z</time>
      </trkpt>
      <trkpt lat="47.84082" lon="-2.42933">
        <ele>23.5</ele>
        <time>2014-04-13T12:31:05Z</time>
      </trkpt>
      <trkpt lat="47.84079" lon="-2.4292">
        <ele>23.5</ele>
        <time>2014-04-13T12:31:14Z</time>
      </trkpt>
      <trkpt lat="47.84073" lon="-2.42907">
        <ele>21.597656</ele>
        <time>2014-04-13T12:31:24Z</time>
      </trkpt>
      <trkpt lat="47.84068" lon="-2.42896">
        <ele>20</ele>
        <time>2014-04-13T12:31:32Z</time>
      </trkpt>
      <trkpt lat="47.84062" lon="-2.42885">
        <ele>19</ele>
        <time>2014-04-13T12:31:41Z</time>
      </trkpt>
      <trkpt lat="47.84055" lon="-2.42875">
        <ele>19.097656</ele>
        <time>2014-04-13T12:31:49Z</time>
      </trkpt>
      <trkpt lat="47.8404" lon="-2.42859">
        <ele>22.597656</ele>
        <time>2014-04-13T12:32:05Z</time>
      </trkpt>
      <trkpt lat="47.84036" lon="-2.42847">
        <ele>22.199219</ele>
        <time>2014-04-13T12:32:14Z</time>
      </trkpt>
      <trkpt lat="47.84034" lon="-2.42833">
        <ele>22.296875</ele>
        <time>2014-04-13T12:32:23Z</time>
      </trkpt>
      <trkpt lat="47.84032" lon="-2.42819">
        <ele>22.5</ele>
        <time>2014-04-13T12:32:30Z</time>
      </trkpt>
      <trkpt lat="47.8403" lon="-2.42805">
        <ele>22.398438</ele>
        <time>2014-04-13T12:32:37Z</time>
      </trkpt>
      <trkpt lat="47.84026" lon="-2.42793">
        <ele>21</ele>
        <time>2014-04-13T12:32:43Z</time>
      </trkpt>
      <trkpt lat="47.84022" lon="-2.42779">
        <ele>20.398438</ele>
        <time>2014-04-13T12:32:49Z</time>
      </trkpt>
      <trkpt lat="47.84019" lon="-2.42765">
        <ele>20.898438</ele>
        <time>2014-04-13T12:32:56Z</time>
      </trkpt>
      <trkpt lat="47.84013" lon="-2.42722">
        <ele>17.898438</ele>
        <time>2014-04-13T12:33:17Z</time>
      </trkpt>
      <trkpt lat="47.84011" lon="-2.42707">
        <ele>17.199219</ele>
        <time>2014-04-13T12:33:25Z</time>
      </trkpt>
      <trkpt lat="47.84008" lon="-2.42694">
        <ele>17.199219</ele>
        <time>2014-04-13T12:33:32Z</time>
      </trkpt>
      <trkpt lat="47.84007" lon="-2.42681">
        <ele>15.796875</ele>
        <time>2014-04-13T12:33:40Z</time>
      </trkpt>
      <trkpt lat="47.84003" lon="-2.42668">
        <ele>13.699219</ele>
        <time>2014-04-13T12:33:49Z</time>
      </trkpt>
      <trkpt lat="47.83994" lon="-2.42663">
        <ele>14.398438</ele>
        <time>2014-04-13T12:33:58Z</time>
      </trkpt>
      <trkpt lat="47.83984" lon="-2.42661">
        <ele>15</ele>
        <time>2014-04-13T12:34:10Z</time>
      </trkpt>
      <trkpt lat="47.83975" lon="-2.42662">
        <ele>14.699219</ele>
        <time>2014-04-13T12:34:20Z</time>
      </trkpt>
      <trkpt lat="47.83965" lon="-2.42664">
        <ele>13</ele>
        <time>2014-04-13T12:34:29Z</time>
      </trkpt>
      <trkpt lat="47.83956" lon="-2.42669">
        <ele>13.597656</ele>
        <time>2014-04-13T12:34:38Z</time>
      </trkpt>
      <trkpt lat="47.8391" lon="-2.42696">
        <ele>14.898438</ele>
        <time>2014-04-13T12:35:18Z</time>
      </trkpt>
      <trkpt lat="47.83901" lon="-2.42699">
        <ele>17.597656</ele>
        <time>2014-04-13T12:35:27Z</time>
      </trkpt>
      <trkpt lat="47.83892" lon="-2.42693">
        <ele>14.199219</ele>
        <time>2014-04-13T12:35:36Z</time>
      </trkpt>
      <trkpt lat="47.83884" lon="-2.42686">
        <ele>8.296875</ele>
        <time>2014-04-13T12:35:46Z</time>
      </trkpt>
      <trkpt lat="47.83884" lon="-2.42673">
        <ele>4.796875</ele>
        <time>2014-04-13T12:35:55Z</time>
      </trkpt>
      <trkpt lat="47.83889" lon="-2.42661">
        <ele>5.597656</ele>
        <time>2014-04-13T12:36:04Z</time>
      </trkpt>
      <trkpt lat="47.83896" lon="-2.42652">
        <ele>8.097656</ele>
        <time>2014-04-13T12:36:14Z</time>
      </trkpt>
      <trkpt lat="47.83904" lon="-2.42645">
        <ele>10.398438</ele>
        <time>2014-04-13T12:36:23Z</time>
      </trkpt>
      <trkpt lat="47.83912" lon="-2.42636">
        <ele>10.796875</ele>
        <time>2014-04-13T12:36:33Z</time>
      </trkpt>
      <trkpt lat="47.83921" lon="-2.4263">
        <ele>10.398438</ele>
        <time>2014-04-13T12:36:42Z</time>
      </trkpt>
      <trkpt lat="47.83929" lon="-2.42624">
        <ele>10.796875</ele>
        <time>2014-04-13T12:36:51Z</time>
      </trkpt>
      <trkpt lat="47.83938" lon="-2.4262">
        <ele>10.597656</ele>
        <time>2014-04-13T12:36:59Z</time>
      </trkpt>
      <trkpt lat="47.83966" lon="-2.42608">
        <ele>13.296875</ele>
        <time>2014-04-13T12:37:20Z</time>
      </trkpt>
      <trkpt lat="47.84082" lon="-2.42545">
        <ele>12.796875</ele>
        <time>2014-04-13T12:39:08Z</time>
      </trkpt>
      <trkpt lat="47.84091" lon="-2.42546">
        <ele>13.699219</ele>
        <time>2014-04-13T12:41:14Z</time>
      </trkpt>
      <trkpt lat="47.841" lon="-2.42541">
        <ele>13</ele>
        <time>2014-04-13T12:41:22Z</time>
      </trkpt>
      <trkpt lat="47.84144" lon="-2.42513">
        <ele>19.398438</ele>
        <time>2014-04-13T12:42:03Z</time>
      </trkpt>
      <trkpt lat="47.8417" lon="-2.42495">
        <ele>22.597656</ele>
        <time>2014-04-13T12:42:29Z</time>
      </trkpt>
      <trkpt lat="47.84179" lon="-2.42488">
        <ele>22</ele>
        <time>2014-04-13T12:42:37Z</time>
      </trkpt>
      <trkpt lat="47.84178" lon="-2.42475">
        <ele>24.398438</ele>
        <time>2014-04-13T12:42:47Z</time>
      </trkpt>
      <trkpt lat="47.84173" lon="-2.42463">
        <ele>24.199219</ele>
        <time>2014-04-13T12:42:57Z</time>
      </trkpt>
      <trkpt lat="47.84035" lon="-2.42117">
        <ele>18</ele>
        <time>2014-04-13T12:46:35Z</time>
      </trkpt>
      <trkpt lat="47.84032" lon="-2.42104">
        <ele>16.699219</ele>
        <time>2014-04-13T12:46:43Z</time>
      </trkpt>
      <trkpt lat="47.84029" lon="-2.42091">
        <ele>16.898438</ele>
        <time>2014-04-13T12:46:51Z</time>
      </trkpt>
      <trkpt lat="47.84027" lon="-2.42077">
        <ele>15.699219</ele>
        <time>2014-04-13T12:46:59Z</time>
      </trkpt>
      <trkpt lat="47.84026" lon="-2.42063">
        <ele>15.699219</ele>
        <time>2014-04-13T12:47:07Z</time>
      </trkpt>
      <trkpt lat="47.84023" lon="-2.42049">
        <ele>13.796875</ele>
        <time>2014-04-13T12:47:15Z</time>
      </trkpt>
      <trkpt lat="47.84012" lon="-2.41979">
        <ele>14.699219</ele>
        <time>2014-04-13T12:47:54Z</time>
      </trkpt>
      <trkpt lat="47.84009" lon="-2.41966">
        <ele>14.398438</ele>
        <time>2014-04-13T12:48:02Z</time>
      </trkpt>
      <trkpt lat="47.84005" lon="-2.41952">
        <ele>15.296875</ele>
        <time>2014-04-13T12:48:10Z</time>
      </trkpt>
      <trkpt lat="47.83993" lon="-2.41915">
        <ele>20</ele>
        <time>2014-04-13T12:48:31Z</time>
      </trkpt>
      <trkpt lat="47.83987" lon="-2.41904">
        <ele>20.898438</ele>
        <time>2014-04-13T12:48:38Z</time>
      </trkpt>
      <trkpt lat="47.83973" lon="-2.41882">
        <ele>18.5</ele>
        <time>2014-04-13T12:48:52Z</time>
      </trkpt>
      <trkpt lat="47.83967" lon="-2.4187">
        <ele>16.898438</ele>
        <time>2014-04-13T12:48:59Z</time>
      </trkpt>
      <trkpt lat="47.83962" lon="-2.41857">
        <ele>13.796875</ele>
        <time>2014-04-13T12:49:07Z</time>
      </trkpt>
      <trkpt lat="47.8396" lon="-2.41843">
        <ele>12.5</ele>
        <time>2014-04-13T12:49:16Z</time>
      </trkpt>
      <trkpt lat="47.83959" lon="-2.41828">
        <ele>12.699219</ele>
        <time>2014-04-13T12:49:24Z</time>
      </trkpt>
      <trkpt lat="47.83956" lon="-2.418">
        <ele>17.296875</ele>
        <time>2014-04-13T12:50:00Z</time>
      </trkpt>
      <trkpt lat="47.83958" lon="-2.41787">
        <ele>18</ele>
        <time>2014-04-13T12:50:07Z</time>
      </trkpt>
      <trkpt lat="47.83955" lon="-2.41773">
        <ele>17.199219</ele>
        <time>2014-04-13T12:50:17Z</time>
      </trkpt>
      <trkpt lat="47.83951" lon="-2.41759">
        <ele>16.597656</ele>
        <time>2014-04-13T12:50:28Z</time>
      </trkpt>
      <trkpt lat="47.83935" lon="-2.41706">
        <ele>14.597656</ele>
        <time>2014-04-13T12:50:59Z</time>
      </trkpt>
      <trkpt lat="47.83932" lon="-2.41693">
        <ele>14</ele>
        <time>2014-04-13T12:51:07Z</time>
      </trkpt>
      <trkpt lat="47.83931" lon="-2.41679">
        <ele>14</ele>
        <time>2014-04-13T12:51:16Z</time>
      </trkpt>
      <trkpt lat="47.83933" lon="-2.41664">
        <ele>14.5</ele>
        <time>2014-04-13T12:51:25Z</time>
      </trkpt>
      <trkpt lat="47.83934" lon="-2.41651">
        <ele>14.898438</ele>
        <time>2014-04-13T12:51:32Z</time>
      </trkpt>
      <trkpt lat="47.83934" lon="-2.41637">
        <ele>14.097656</ele>
        <time>2014-04-13T12:51:39Z</time>
      </trkpt>
      <trkpt lat="47.83934" lon="-2.41622">
        <ele>12.796875</ele>
        <time>2014-04-13T12:51:47Z</time>
      </trkpt>
      <trkpt lat="47.83933" lon="-2.41607">
        <ele>12.296875</ele>
        <time>2014-04-13T12:51:55Z</time>
      </trkpt>
      <trkpt lat="47.83934" lon="-2.41593">
        <ele>12.296875</ele>
        <time>2014-04-13T12:52:03Z</time>
      </trkpt>
      <trkpt lat="47.83934" lon="-2.4158">
        <ele>12.398438</ele>
        <time>2014-04-13T12:52:10Z</time>
      </trkpt>
      <trkpt lat="47.83932" lon="-2.41565">
        <ele>12.597656</ele>
        <time>2014-04-13T12:52:18Z</time>
      </trkpt>
      <trkpt lat="47.83923" lon="-2.41493">
        <ele>9.074219</ele>
        <time>2014-04-13T12:52:57Z</time>
      </trkpt>
      <trkpt lat="47.83923" lon="-2.4148">
        <ele>7.597656</ele>
        <time>2014-04-13T12:53:08Z</time>
      </trkpt>
      <trkpt lat="47.83926" lon="-2.41466">
        <ele>7.296875</ele>
        <time>2014-04-13T12:53:16Z</time>
      </trkpt>
      <trkpt lat="47.83929" lon="-2.41452">
        <ele>8.199219</ele>
        <time>2014-04-13T12:53:25Z</time>
      </trkpt>
      <trkpt lat="47.83931" lon="-2.41439">
        <ele>7.699219</ele>
        <time>2014-04-13T12:53:32Z</time>
      </trkpt>
      <trkpt lat="47.83932" lon="-2.41424">
        <ele>4.796875</ele>
        <time>2014-04-13T12:53:40Z</time>
      </trkpt>
      <trkpt lat="47.83931" lon="-2.414">
        <ele>1.097656</ele>
        <time>2014-04-13T12:54:20Z</time>
      </trkpt>
      <trkpt lat="47.83932" lon="-2.41387">
        <ele>2.097656</ele>
        <time>2014-04-13T12:54:30Z</time>
      </trkpt>
      <trkpt lat="47.83936" lon="-2.4136">
        <ele>7.097656</ele>
        <time>2014-04-13T12:54:48Z</time>
      </trkpt>
      <trkpt lat="47.83935" lon="-2.41346">
        <ele>20</ele>
        <time>2014-04-13T12:54:57Z</time>
      </trkpt>
      <trkpt lat="47.83927" lon="-2.41339">
        <ele>22.699219</ele>
        <time>2014-04-13T12:55:28Z</time>
      </trkpt>
      <trkpt lat="47.83918" lon="-2.41339">
        <ele>23.898438</ele>
        <time>2014-04-13T12:55:36Z</time>
      </trkpt>
      <trkpt lat="47.83909" lon="-2.41341">
        <ele>23.597656</ele>
        <time>2014-04-13T12:55:44Z</time>
      </trkpt>
      <trkpt lat="47.83899" lon="-2.41344">
        <ele>24.898438</ele>
        <time>2014-04-13T12:55:52Z</time>
      </trkpt>
      <trkpt lat="47.8389" lon="-2.41346">
        <ele>24.398438</ele>
        <time>2014-04-13T12:56:01Z</time>
      </trkpt>
      <trkpt lat="47.8388" lon="-2.41349">
        <ele>23.296875</ele>
        <time>2014-04-13T12:56:12Z</time>
      </trkpt>
      <trkpt lat="47.83872" lon="-2.41354">
        <ele>23.796875</ele>
        <time>2014-04-13T12:56:21Z</time>
      </trkpt>
      <trkpt lat="47.83863" lon="-2.41359">
        <ele>24.699219</ele>
        <time>2014-04-13T12:56:29Z</time>
      </trkpt>
      <trkpt lat="47.8381" lon="-2.41394">
        <ele>19.898438</ele>
        <time>2014-04-13T12:57:14Z</time>
      </trkpt>
      <trkpt lat="47.83801" lon="-2.41397">
        <ele>21</ele>
        <time>2014-04-13T12:57:22Z</time>
      </trkpt>
      <trkpt lat="47.83792" lon="-2.41399">
        <ele>20.898438</ele>
        <time>2014-04-13T12:57:30Z</time>
      </trkpt>
      <trkpt lat="47.83783" lon="-2.41394">
        <ele>20.199219</ele>
        <time>2014-04-13T12:57:38Z</time>
      </trkpt>
      <trkpt lat="47.83776" lon="-2.41385">
        <ele>19.296875</ele>
        <time>2014-04-13T12:57:47Z</time>
      </trkpt>
      <trkpt lat="47.83768" lon="-2.41375">
        <ele>17</ele>
        <time>2014-04-13T12:57:56Z</time>
      </trkpt>
      <trkpt lat="47.83762" lon="-2.41366">
        <ele>15.199219</ele>
        <time>2014-04-13T12:58:04Z</time>
      </trkpt>
      <trkpt lat="47.83757" lon="-2.41354">
        <ele>13.699219</ele>
        <time>2014-04-13T12:58:12Z</time>
      </trkpt>
      <trkpt lat="47.83753" lon="-2.41342">
        <ele>13.796875</ele>
        <time>2014-04-13T12:58:20Z</time>
      </trkpt>
      <trkpt lat="47.83748" lon="-2.41329">
        <ele>13.5</ele>
        <time>2014-04-13T12:58:28Z</time>
      </trkpt>
      <trkpt lat="47.83746" lon="-2.41315">
        <ele>14</ele>
        <time>2014-04-13T12:58:37Z</time>
      </trkpt>
      <trkpt lat="47.83745" lon="-2.41302">
        <ele>15.597656</ele>
        <time>2014-04-13T12:58:44Z</time>
      </trkpt>
      <trkpt lat="47.83746" lon="-2.41286">
        <ele>16.296875</ele>
        <time>2014-04-13T12:58:53Z</time>
      </trkpt>
      <trkpt lat="47.83747" lon="-2.41257">
        <ele>11.898438</ele>
        <time>2014-04-13T12:59:10Z</time>
      </trkpt>
      <trkpt lat="47.83745" lon="-2.41243">
        <ele>11.199219</ele>
        <time>2014-04-13T12:59:19Z</time>
      </trkpt>
      <trkpt lat="47.8374" lon="-2.41232">
        <ele>13.199219</ele>
        <time>2014-04-13T12:59:29Z</time>
      </trkpt>
      <trkpt lat="47.83731" lon="-2.41226">
        <ele>15.199219</ele>
        <time>2014-04-13T12:59:40Z</time>
      </trkpt>
      <trkpt lat="47.83713" lon="-2.41216">
        <ele>19.296875</ele>
        <time>2014-04-13T12:59:56Z</time>
      </trkpt>
      <trkpt lat="47.83703" lon="-2.41212">
        <ele>18.199219</ele>
        <time>2014-04-13T13:00:04Z</time>
      </trkpt>
      <trkpt lat="47.83694" lon="-2.41207">
        <ele>15.898438</ele>
        <time>2014-04-13T13:00:12Z</time>
      </trkpt>
      <trkpt lat="47.83689" lon="-2.41196">
        <ele>14</ele>
        <time>2014-04-13T13:00:21Z</time>
      </trkpt>
      <trkpt lat="47.83685" lon="-2.41183">
        <ele>12.398438</ele>
        <time>2014-04-13T13:00:30Z</time>
      </trkpt>
      <trkpt lat="47.83684" lon="-2.41168">
        <ele>9.699219</ele>
        <time>2014-04-13T13:00:39Z</time>
      </trkpt>
      <trkpt lat="47.83681" lon="-2.41126">
        <ele>8.097656</ele>
        <time>2014-04-13T13:01:05Z</time>
      </trkpt>
      <trkpt lat="47.83679" lon="-2.41112">
        <ele>9.296875</ele>
        <time>2014-04-13T13:01:13Z</time>
      </trkpt>
      <trkpt lat="47.83677" lon="-2.41099">
        <ele>10.097656</ele>
        <time>2014-04-13T13:01:21Z</time>
      </trkpt>
      <trkpt lat="47.8366" lon="-2.40986">
        <ele>11.398438</ele>
        <time>2014-04-13T13:02:23Z</time>
      </trkpt>
      <trkpt lat="47.83659" lon="-2.40971">
        <ele>12.273438</ele>
        <time>2014-04-13T13:02:31Z</time>
      </trkpt>
      <trkpt lat="47.83657" lon="-2.40944">
        <ele>10.296875</ele>
        <time>2014-04-13T13:02:47Z</time>
      </trkpt>
      <trkpt lat="47.83654" lon="-2.40929">
        <ele>8.796875</ele>
        <time>2014-04-13T13:02:55Z</time>
      </trkpt>
      <trkpt lat="47.83625" lon="-2.40793">
        <ele>7.597656</ele>
        <time>2014-04-13T13:04:06Z</time>
      </trkpt>
      <trkpt lat="47.83622" lon="-2.40763">
        <ele>5.796875</ele>
        <time>2014-04-13T13:04:22Z</time>
      </trkpt>
      <trkpt lat="47.83621" lon="-2.40749">
        <ele>5.097656</ele>
        <time>2014-04-13T13:04:30Z</time>
      </trkpt>
      <trkpt lat="47.83619" lon="-2.40719">
        <ele>3.097656</ele>
        <time>2014-04-13T13:04:46Z</time>
      </trkpt>
      <trkpt lat="47.83619" lon="-2.40691">
        <ele>3.398438</ele>
        <time>2014-04-13T13:05:27Z</time>
      </trkpt>
      <trkpt lat="47.83623" lon="-2.40678">
        <ele>2.5</ele>
        <time>2014-04-13T13:07:15Z</time>
      </trkpt>
      <trkpt lat="47.83624" lon="-2.40664">
        <ele>2.097656</ele>
        <time>2014-04-13T13:07:23Z</time>
      </trkpt>
      <trkpt lat="47.83624" lon="-2.40622">
        <ele>1.097656</ele>
        <time>2014-04-13T13:07:47Z</time>
      </trkpt>
      <trkpt lat="47.83632" lon="-2.40482">
        <ele>-0.097656</ele>
        <time>2014-04-13T13:09:02Z</time>
      </trkpt>
      <trkpt lat="47.83635" lon="-2.40426">
        <ele>1.597656</ele>
        <time>2014-04-13T13:09:32Z</time>
      </trkpt>
      <trkpt lat="47.83664" lon="-2.40059">
        <ele>4.398438</ele>
        <time>2014-04-13T13:12:48Z</time>
      </trkpt>
      <trkpt lat="47.83669" lon="-2.40046">
        <ele>6.5</ele>
        <time>2014-04-13T13:12:57Z</time>
      </trkpt>
      <trkpt lat="47.83679" lon="-2.40042">
        <ele>6.199219</ele>
        <time>2014-04-13T13:13:08Z</time>
      </trkpt>
      <trkpt lat="47.83688" lon="-2.40041">
        <ele>6.796875</ele>
        <time>2014-04-13T13:13:20Z</time>
      </trkpt>
      <trkpt lat="47.83698" lon="-2.4004">
        <ele>9.097656</ele>
        <time>2014-04-13T13:13:29Z</time>
      </trkpt>
      <trkpt lat="47.83707" lon="-2.40038">
        <ele>11.398438</ele>
        <time>2014-04-13T13:13:40Z</time>
      </trkpt>
      <trkpt lat="47.83716" lon="-2.40034">
        <ele>12.097656</ele>
        <time>2014-04-13T13:13:49Z</time>
      </trkpt>
      <trkpt lat="47.83725" lon="-2.40031">
        <ele>12.898438</ele>
        <time>2014-04-13T13:13:57Z</time>
      </trkpt>
      <trkpt lat="47.83734" lon="-2.40029">
        <ele>14.597656</ele>
        <time>2014-04-13T13:14:05Z</time>
      </trkpt>
      <trkpt lat="47.83743" lon="-2.40024">
        <ele>16.582031</ele>
        <time>2014-04-13T13:14:14Z</time>
      </trkpt>
      <trkpt lat="47.83751" lon="-2.40016">
        <ele>17.199219</ele>
        <time>2014-04-13T13:14:32Z</time>
      </trkpt>
      <trkpt lat="47.83754" lon="-2.40003">
        <ele>17.398438</ele>
        <time>2014-04-13T13:14:45Z</time>
      </trkpt>
      <trkpt lat="47.83752" lon="-2.39989">
        <ele>16.199219</ele>
        <time>2014-04-13T13:14:53Z</time>
      </trkpt>
      <trkpt lat="47.83748" lon="-2.39948">
        <ele>16.097656</ele>
        <time>2014-04-13T13:15:16Z</time>
      </trkpt>
      <trkpt lat="47.83745" lon="-2.39934">
        <ele>16.796875</ele>
        <time>2014-04-13T13:15:24Z</time>
      </trkpt>
      <trkpt lat="47.8374" lon="-2.39922">
        <ele>17.699219</ele>
        <time>2014-04-13T13:15:32Z</time>
      </trkpt>
      <trkpt lat="47.83731" lon="-2.39915">
        <ele>22.898438</ele>
        <time>2014-04-13T13:15:42Z</time>
      </trkpt>
      <trkpt lat="47.83722" lon="-2.39906">
        <ele>24.5</ele>
        <time>2014-04-13T13:16:06Z</time>
      </trkpt>
      <trkpt lat="47.83708" lon="-2.39888">
        <ele>23.699219</ele>
        <time>2014-04-13T13:16:25Z</time>
      </trkpt>
      <trkpt lat="47.83701" lon="-2.39878">
        <ele>21.796875</ele>
        <time>2014-04-13T13:16:34Z</time>
      </trkpt>
      <trkpt lat="47.83695" lon="-2.39866">
        <ele>21.699219</ele>
        <time>2014-04-13T13:16:43Z</time>
      </trkpt>
      <trkpt lat="47.8369" lon="-2.39853">
        <ele>21.898438</ele>
        <time>2014-04-13T13:16:51Z</time>
      </trkpt>
      <trkpt lat="47.83687" lon="-2.39839">
        <ele>21.898438</ele>
        <time>2014-04-13T13:16:58Z</time>
      </trkpt>
      <trkpt lat="47.83685" lon="-2.39825">
        <ele>21.097656</ele>
        <time>2014-04-13T13:17:05Z</time>
      </trkpt>
      <trkpt lat="47.83684" lon="-2.3981">
        <ele>22.097656</ele>
        <time>2014-04-13T13:17:13Z</time>
      </trkpt>
      <trkpt lat="47.83682" lon="-2.39797">
        <ele>22.398438</ele>
        <time>2014-04-13T13:17:20Z</time>
      </trkpt>
      <trkpt lat="47.83675" lon="-2.39786">
        <ele>22.199219</ele>
        <time>2014-04-13T13:17:27Z</time>
      </trkpt>
      <trkpt lat="47.83667" lon="-2.39777">
        <ele>22.199219</ele>
        <time>2014-04-13T13:17:35Z</time>
      </trkpt>
      <trkpt lat="47.83664" lon="-2.39764">
        <ele>21.398438</ele>
        <time>2014-04-13T13:17:44Z</time>
      </trkpt>
      <trkpt lat="47.83663" lon="-2.3975">
        <ele>19.898438</ele>
        <time>2014-04-13T13:17:52Z</time>
      </trkpt>
      <trkpt lat="47.83663" lon="-2.39736">
        <ele>17.398438</ele>
        <time>2014-04-13T13:18:00Z</time>
      </trkpt>
      <trkpt lat="47.8366" lon="-2.3972">
        <ele>16.199219</ele>
        <time>2014-04-13T13:18:12Z</time>
      </trkpt>
      <trkpt lat="47.83654" lon="-2.39709">
        <ele>19.019531</ele>
        <time>2014-04-13T13:18:21Z</time>
      </trkpt>
      <trkpt lat="47.83652" lon="-2.39696">
        <ele>20.5</ele>
        <time>2014-04-13T13:18:35Z</time>
      </trkpt>
      <trkpt lat="47.83647" lon="-2.39681">
        <ele>20</ele>
        <time>2014-04-13T13:18:41Z</time>
      </trkpt>
      <trkpt lat="47.83643" lon="-2.39664">
        <ele>18.597656</ele>
        <time>2014-04-13T13:18:51Z</time>
      </trkpt>
      <trkpt lat="47.83632" lon="-2.39617">
        <ele>18.429688</ele>
        <time>2014-04-13T13:19:16Z</time>
      </trkpt>
      <trkpt lat="47.83615" lon="-2.39546">
        <ele>22.597656</ele>
        <time>2014-04-13T13:19:58Z</time>
      </trkpt>
      <trkpt lat="47.83605" lon="-2.39518">
        <ele>22.574219</ele>
        <time>2014-04-13T13:20:15Z</time>
      </trkpt>
      <trkpt lat="47.83594" lon="-2.39494">
        <ele>22.796875</ele>
        <time>2014-04-13T13:20:50Z</time>
      </trkpt>
      <trkpt lat="47.83561" lon="-2.39432">
        <ele>25.421875</ele>
        <time>2014-04-13T13:21:18Z</time>
      </trkpt>
      <trkpt lat="47.83557" lon="-2.3942">
        <ele>22.84375</ele>
        <time>2014-04-13T13:21:28Z</time>
      </trkpt>
      <trkpt lat="47.83551" lon="-2.39409">
        <ele>22.199219</ele>
        <time>2014-04-13T13:21:52Z</time>
      </trkpt>
      <trkpt lat="47.83541" lon="-2.39396">
        <ele>21.5</ele>
        <time>2014-04-13T13:21:54Z</time>
      </trkpt>
      <trkpt lat="47.83533" lon="-2.39389">
        <ele>21.796875</ele>
        <time>2014-04-13T13:22:10Z</time>
      </trkpt>
      <trkpt lat="47.83526" lon="-2.3938">
        <ele>21.84375</ele>
        <time>2014-04-13T13:22:14Z</time>
      </trkpt>
      <trkpt lat="47.83518" lon="-2.39373">
        <ele>21.699219</ele>
        <time>2014-04-13T13:22:34Z</time>
      </trkpt>
      <trkpt lat="47.83492" lon="-2.3935">
        <ele>18.097656</ele>
        <time>2014-04-13T13:22:55Z</time>
      </trkpt>
      <trkpt lat="47.83482" lon="-2.39346">
        <ele>17.976563</ele>
        <time>2014-04-13T13:23:04Z</time>
      </trkpt>
      <trkpt lat="47.83473" lon="-2.39343">
        <ele>16.597656</ele>
        <time>2014-04-13T13:23:17Z</time>
      </trkpt>
      <trkpt lat="47.83462" lon="-2.39335">
        <ele>18.363281</ele>
        <time>2014-04-13T13:23:23Z</time>
      </trkpt>
      <trkpt lat="47.83454" lon="-2.39331">
        <ele>16.398438</ele>
        <time>2014-04-13T13:23:53Z</time>
      </trkpt>
      <trkpt lat="47.83433" lon="-2.39313">
        <ele>17.398438</ele>
        <time>2014-04-13T13:24:07Z</time>
      </trkpt>
      <trkpt lat="47.83416" lon="-2.393">
        <ele>19.5</ele>
        <time>2014-04-13T13:24:24Z</time>
      </trkpt>
      <trkpt lat="47.83406" lon="-2.39295">
        <ele>19</ele>
        <time>2014-04-13T13:24:34Z</time>
      </trkpt>
      <trkpt lat="47.83397" lon="-2.39294">
        <ele>20.097656</ele>
        <time>2014-04-13T13:24:43Z</time>
      </trkpt>
      <trkpt lat="47.83383" lon="-2.39294">
        <ele>18.113281</ele>
        <time>2014-04-13T13:25:00Z</time>
      </trkpt>
      <trkpt lat="47.83374" lon="-2.39296">
        <ele>18.296875</ele>
        <time>2014-04-13T13:25:22Z</time>
      </trkpt>
      <trkpt lat="47.83365" lon="-2.39295">
        <ele>18.097656</ele>
        <time>2014-04-13T13:26:27Z</time>
      </trkpt>
      <trkpt lat="47.83308" lon="-2.39295">
        <ele>19.898438</ele>
        <time>2014-04-13T13:27:22Z</time>
      </trkpt>
      <trkpt lat="47.83289" lon="-2.39296">
        <ele>19.597656</ele>
        <time>2014-04-13T13:27:37Z</time>
      </trkpt>
      <trkpt lat="47.8327" lon="-2.39299">
        <ele>19.5</ele>
        <time>2014-04-13T13:27:51Z</time>
      </trkpt>
      <trkpt lat="47.83261" lon="-2.39298">
        <ele>18.097656</ele>
        <time>2014-04-13T13:28:00Z</time>
      </trkpt>
      <trkpt lat="47.83252" lon="-2.39296">
        <ele>18.289063</ele>
        <time>2014-04-13T13:28:10Z</time>
      </trkpt>
      <trkpt lat="47.83243" lon="-2.3929">
        <ele>16.597656</ele>
        <time>2014-04-13T13:28:39Z</time>
      </trkpt>
      <trkpt lat="47.83234" lon="-2.39274">
        <ele>16.109375</ele>
        <time>2014-04-13T13:28:55Z</time>
      </trkpt>
      <trkpt lat="47.83232" lon="-2.39261">
        <ele>14.199219</ele>
        <time>2014-04-13T13:29:16Z</time>
      </trkpt>
      <trkpt lat="47.83225" lon="-2.39269">
        <ele>12.597656</ele>
        <time>2014-04-13T13:29:58Z</time>
      </trkpt>
      <trkpt lat="47.8323" lon="-2.39258">
        <ele>13</ele>
        <time>2014-04-13T13:30:31Z</time>
      </trkpt>
      <trkpt lat="47.83233" lon="-2.39243">
        <ele>13.398438</ele>
        <time>2014-04-13T13:30:40Z</time>
      </trkpt>
      <trkpt lat="47.83232" lon="-2.39229">
        <ele>13.597656</ele>
        <time>2014-04-13T13:30:49Z</time>
      </trkpt>
      <trkpt lat="47.83229" lon="-2.39184">
        <ele>11.796875</ele>
        <time>2014-04-13T13:31:16Z</time>
      </trkpt>
      <trkpt lat="47.8323" lon="-2.3917">
        <ele>12.597656</ele>
        <time>2014-04-13T13:31:25Z</time>
      </trkpt>
      <trkpt lat="47.83231" lon="-2.39155">
        <ele>15.5</ele>
        <time>2014-04-13T13:31:33Z</time>
      </trkpt>
      <trkpt lat="47.83234" lon="-2.39143">
        <ele>17.5</ele>
        <time>2014-04-13T13:31:41Z</time>
      </trkpt>
      <trkpt lat="47.83241" lon="-2.39133">
        <ele>17.199219</ele>
        <time>2014-04-13T13:31:49Z</time>
      </trkpt>
      <trkpt lat="47.83247" lon="-2.39123">
        <ele>16.199219</ele>
        <time>2014-04-13T13:31:58Z</time>
      </trkpt>
      <trkpt lat="47.83251" lon="-2.39111">
        <ele>15.097656</ele>
        <time>2014-04-13T13:32:06Z</time>
      </trkpt>
      <trkpt lat="47.83247" lon="-2.39098">
        <ele>13.398438</ele>
        <time>2014-04-13T13:32:14Z</time>
      </trkpt>
      <trkpt lat="47.83231" lon="-2.39062">
        <ele>11.398438</ele>
        <time>2014-04-13T13:32:39Z</time>
      </trkpt>
      <trkpt lat="47.83224" lon="-2.39051">
        <ele>10.097656</ele>
        <time>2014-04-13T13:32:47Z</time>
      </trkpt>
      <trkpt lat="47.83215" lon="-2.39044">
        <ele>9.5</ele>
        <time>2014-04-13T13:32:55Z</time>
      </trkpt>
      <trkpt lat="47.83206" lon="-2.39043">
        <ele>8.898438</ele>
        <time>2014-04-13T13:33:03Z</time>
      </trkpt>
      <trkpt lat="47.83197" lon="-2.39041">
        <ele>9</ele>
        <time>2014-04-13T13:33:13Z</time>
      </trkpt>
      <trkpt lat="47.83083" lon="-2.39029">
        <ele>7.699219</ele>
        <time>2014-04-13T13:34:49Z</time>
      </trkpt>
      <trkpt lat="47.83046" lon="-2.3902">
        <ele>8</ele>
        <time>2014-04-13T13:35:20Z</time>
      </trkpt>
      <trkpt lat="47.82952" lon="-2.38993">
        <ele>11</ele>
        <time>2014-04-13T13:36:36Z</time>
      </trkpt>
      <trkpt lat="47.82942" lon="-2.38995">
        <ele>11</ele>
        <time>2014-04-13T13:36:44Z</time>
      </trkpt>
      <trkpt lat="47.82932" lon="-2.38997">
        <ele>10.796875</ele>
        <time>2014-04-13T13:36:52Z</time>
      </trkpt>
      <trkpt lat="47.82923" lon="-2.39001">
        <ele>10.5</ele>
        <time>2014-04-13T13:37:00Z</time>
      </trkpt>
      <trkpt lat="47.82755" lon="-2.3908">
        <ele>7.796875</ele>
        <time>2014-04-13T13:39:16Z</time>
      </trkpt>
      <trkpt lat="47.82747" lon="-2.39086">
        <ele>7.296875</ele>
        <time>2014-04-13T13:39:23Z</time>
      </trkpt>
      <trkpt lat="47.82738" lon="-2.3909">
        <ele>7.296875</ele>
        <time>2014-04-13T13:39:31Z</time>
      </trkpt>
      <trkpt lat="47.82729" lon="-2.39086">
        <ele>6.898438</ele>
        <time>2014-04-13T13:39:39Z</time>
      </trkpt>
      <trkpt lat="47.82725" lon="-2.39073">
        <ele>6.199219</ele>
        <time>2014-04-13T13:39:48Z</time>
      </trkpt>
      <trkpt lat="47.82722" lon="-2.3906">
        <ele>7.199219</ele>
        <time>2014-04-13T13:39:56Z</time>
      </trkpt>
      <trkpt lat="47.8272" lon="-2.39045">
        <ele>7.5</ele>
        <time>2014-04-13T13:40:04Z</time>
      </trkpt>
      <trkpt lat="47.82719" lon="-2.39032">
        <ele>7.296875</ele>
        <time>2014-04-13T13:40:11Z</time>
      </trkpt>
      <trkpt lat="47.8271" lon="-2.38904">
        <ele>6.796875</ele>
        <time>2014-04-13T13:41:27Z</time>
      </trkpt>
      <trkpt lat="47.82704" lon="-2.38862">
        <ele>6.5</ele>
        <time>2014-04-13T13:41:52Z</time>
      </trkpt>
      <trkpt lat="47.82653" lon="-2.38582">
        <ele>10</ele>
        <time>2014-04-13T13:46:04Z</time>
      </trkpt>
      <trkpt lat="47.82645" lon="-2.38572">
        <ele>10.097656</ele>
        <time>2014-04-13T13:46:14Z</time>
      </trkpt>
      <trkpt lat="47.82636" lon="-2.38576">
        <ele>10.398438</ele>
        <time>2014-04-13T13:46:22Z</time>
      </trkpt>
      <trkpt lat="47.82608" lon="-2.38588">
        <ele>12.097656</ele>
        <time>2014-04-13T13:46:47Z</time>
      </trkpt>
      <trkpt lat="47.826" lon="-2.38595">
        <ele>11.296875</ele>
        <time>2014-04-13T13:46:55Z</time>
      </trkpt>
      <trkpt lat="47.82591" lon="-2.38601">
        <ele>10.199219</ele>
        <time>2014-04-13T13:47:03Z</time>
      </trkpt>
      <trkpt lat="47.82582" lon="-2.38605">
        <ele>11.898438</ele>
        <time>2014-04-13T13:47:11Z</time>
      </trkpt>
      <trkpt lat="47.82573" lon="-2.3861">
        <ele>12.898438</ele>
        <time>2014-04-13T13:47:19Z</time>
      </trkpt>
      <trkpt lat="47.82564" lon="-2.38614">
        <ele>12.199219</ele>
        <time>2014-04-13T13:47:27Z</time>
      </trkpt>
      <trkpt lat="47.82462" lon="-2.38649">
        <ele>9.898438</ele>
        <time>2014-04-13T13:48:53Z</time>
      </trkpt>
      <trkpt lat="47.82444" lon="-2.3866">
        <ele>9.5</ele>
        <time>2014-04-13T13:49:09Z</time>
      </trkpt>
      <trkpt lat="47.824" lon="-2.3869">
        <ele>6.898438</ele>
        <time>2014-04-13T13:49:47Z</time>
      </trkpt>
      <trkpt lat="47.82391" lon="-2.38694">
        <ele>6.296875</ele>
        <time>2014-04-13T13:49:54Z</time>
      </trkpt>
      <trkpt lat="47.82382" lon="-2.38689">
        <ele>4.796875</ele>
        <time>2014-04-13T13:50:03Z</time>
      </trkpt>
      <trkpt lat="47.82376" lon="-2.38679">
        <ele>1.199219</ele>
        <time>2014-04-13T13:50:11Z</time>
      </trkpt>
      <trkpt lat="47.82369" lon="-2.38668">
        <ele>-0.597656</ele>
        <time>2014-04-13T13:50:20Z</time>
      </trkpt>
      <trkpt lat="47.82364" lon="-2.38656">
        <ele>-2</ele>
        <time>2014-04-13T13:50:28Z</time>
      </trkpt>
      <trkpt lat="47.82359" lon="-2.38643">
        <ele>-1.398438</ele>
        <time>2014-04-13T13:50:37Z</time>
      </trkpt>
      <trkpt lat="47.82356" lon="-2.38631">
        <ele>-1.097656</ele>
        <time>2014-04-13T13:50:45Z</time>
      </trkpt>
      <trkpt lat="47.82353" lon="-2.38617">
        <ele>0.699219</ele>
        <time>2014-04-13T13:50:53Z</time>
      </trkpt>
      <trkpt lat="47.82349" lon="-2.3859">
        <ele>-0.296875</ele>
        <time>2014-04-13T13:51:09Z</time>
      </trkpt>
      <trkpt lat="47.82345" lon="-2.38547">
        <ele>3.296875</ele>
        <time>2014-04-13T13:51:33Z</time>
      </trkpt>
      <trkpt lat="47.82345" lon="-2.38533">
        <ele>5.398438</ele>
        <time>2014-04-13T13:51:40Z</time>
      </trkpt>
      <trkpt lat="47.82347" lon="-2.38518">
        <ele>7.898438</ele>
        <time>2014-04-13T13:51:49Z</time>
      </trkpt>
      <trkpt lat="47.8235" lon="-2.38505">
        <ele>9.597656</ele>
        <time>2014-04-13T13:51:57Z</time>
      </trkpt>
      <trkpt lat="47.82356" lon="-2.38493">
        <ele>10.597656</ele>
        <time>2014-04-13T13:52:05Z</time>
      </trkpt>
      <trkpt lat="47.8236" lon="-2.3848">
        <ele>11.898438</ele>
        <time>2014-04-13T13:52:13Z</time>
      </trkpt>
      <trkpt lat="47.82363" lon="-2.38467">
        <ele>13.199219</ele>
        <time>2014-04-13T13:52:21Z</time>
      </trkpt>
      <trkpt lat="47.82369" lon="-2.38439">
        <ele>14</ele>
        <time>2014-04-13T13:52:37Z</time>
      </trkpt>
      <trkpt lat="47.82375" lon="-2.38425">
        <ele>14.796875</ele>
        <time>2014-04-13T13:52:45Z</time>
      </trkpt>
      <trkpt lat="47.82385" lon="-2.384">
        <ele>12.097656</ele>
        <time>2014-04-13T13:53:01Z</time>
      </trkpt>
      <trkpt lat="47.82389" lon="-2.38387">
        <ele>11</ele>
        <time>2014-04-13T13:53:09Z</time>
      </trkpt>
      <trkpt lat="47.82391" lon="-2.38373">
        <ele>10.398438</ele>
        <time>2014-04-13T13:53:18Z</time>
      </trkpt>
      <trkpt lat="47.82391" lon="-2.38358">
        <ele>9.898438</ele>
        <time>2014-04-13T13:53:26Z</time>
      </trkpt>
      <trkpt lat="47.82393" lon="-2.38214">
        <ele>10.699219</ele>
        <time>2014-04-13T13:54:45Z</time>
      </trkpt>
      <trkpt lat="47.82391" lon="-2.38201">
        <ele>7.097656</ele>
        <time>2014-04-13T13:54:53Z</time>
      </trkpt>
      <trkpt lat="47.82388" lon="-2.38187">
        <ele>3.097656</ele>
        <time>2014-04-13T13:55:02Z</time>
      </trkpt>
      <trkpt lat="47.8238" lon="-2.38179">
        <ele>1.199219</ele>
        <time>2014-04-13T13:55:12Z</time>
      </trkpt>
      <trkpt lat="47.82371" lon="-2.38184">
        <ele>0.296875</ele>
        <time>2014-04-13T13:55:21Z</time>
      </trkpt>
      <trkpt lat="47.82354" lon="-2.38194">
        <ele>2.398438</ele>
        <time>2014-04-13T13:55:40Z</time>
      </trkpt>
      <trkpt lat="47.82345" lon="-2.38198">
        <ele>4</ele>
        <time>2014-04-13T13:55:50Z</time>
      </trkpt>
      <trkpt lat="47.82334" lon="-2.38205">
        <ele>5.398438</ele>
        <time>2014-04-13T13:56:12Z</time>
      </trkpt>
      <trkpt lat="47.82325" lon="-2.38209">
        <ele>6.597656</ele>
        <time>2014-04-13T13:56:33Z</time>
      </trkpt>
      <trkpt lat="47.82316" lon="-2.38213">
        <ele>6.699219</ele>
        <time>2014-04-13T13:56:41Z</time>
      </trkpt>
      <trkpt lat="47.82299" lon="-2.38224">
        <ele>6.699219</ele>
        <time>2014-04-13T13:57:00Z</time>
      </trkpt>
      <trkpt lat="47.82274" lon="-2.38242">
        <ele>10.199219</ele>
        <time>2014-04-13T13:57:22Z</time>
      </trkpt>
      <trkpt lat="47.82264" lon="-2.38245">
        <ele>11</ele>
        <time>2014-04-13T13:57:30Z</time>
      </trkpt>
      <trkpt lat="47.82255" lon="-2.38248">
        <ele>12.296875</ele>
        <time>2014-04-13T13:57:37Z</time>
      </trkpt>
      <trkpt lat="47.82243" lon="-2.38255">
        <ele>12.199219</ele>
        <time>2014-04-13T13:57:59Z</time>
      </trkpt>
      <trkpt lat="47.82233" lon="-2.38256">
        <ele>12.398438</ele>
        <time>2014-04-13T13:58:08Z</time>
      </trkpt>
      <trkpt lat="47.82224" lon="-2.38253">
        <ele>12.398438</ele>
        <time>2014-04-13T13:58:16Z</time>
      </trkpt>
      <trkpt lat="47.82205" lon="-2.3825">
        <ele>9.199219</ele>
        <time>2014-04-13T13:58:34Z</time>
      </trkpt>
      <trkpt lat="47.82196" lon="-2.38249">
        <ele>7.597656</ele>
        <time>2014-04-13T13:58:42Z</time>
      </trkpt>
      <trkpt lat="47.82186" lon="-2.38249">
        <ele>7.296875</ele>
        <time>2014-04-13T13:58:51Z</time>
      </trkpt>
      <trkpt lat="47.82177" lon="-2.38251">
        <ele>6.398438</ele>
        <time>2014-04-13T13:59:00Z</time>
      </trkpt>
      <trkpt lat="47.82167" lon="-2.38253">
        <ele>5.597656</ele>
        <time>2014-04-13T13:59:09Z</time>
      </trkpt>
      <trkpt lat="47.82158" lon="-2.38257">
        <ele>5.296875</ele>
        <time>2014-04-13T13:59:16Z</time>
      </trkpt>
      <trkpt lat="47.82149" lon="-2.38262">
        <ele>4.699219</ele>
        <time>2014-04-13T13:59:23Z</time>
      </trkpt>
      <trkpt lat="47.82139" lon="-2.38264">
        <ele>4.796875</ele>
        <time>2014-04-13T13:59:31Z</time>
      </trkpt>
      <trkpt lat="47.82129" lon="-2.38265">
        <ele>5.597656</ele>
        <time>2014-04-13T13:59:39Z</time>
      </trkpt>
      <trkpt lat="47.82119" lon="-2.38264">
        <ele>7.597656</ele>
        <time>2014-04-13T13:59:47Z</time>
      </trkpt>
      <trkpt lat="47.8211" lon="-2.38261">
        <ele>10.296875</ele>
        <time>2014-04-13T13:59:54Z</time>
      </trkpt>
      <trkpt lat="47.82101" lon="-2.38253">
        <ele>9.5</ele>
        <time>2014-04-13T14:00:02Z</time>
      </trkpt>
      <trkpt lat="47.82094" lon="-2.38243">
        <ele>9.398438</ele>
        <time>2014-04-13T14:00:11Z</time>
      </trkpt>
      <trkpt lat="47.82081" lon="-2.38223">
        <ele>10</ele>
        <time>2014-04-13T14:00:27Z</time>
      </trkpt>
      <trkpt lat="47.82075" lon="-2.38212">
        <ele>10.5</ele>
        <time>2014-04-13T14:00:35Z</time>
      </trkpt>
      <trkpt lat="47.82067" lon="-2.38204">
        <ele>11.398438</ele>
        <time>2014-04-13T14:00:44Z</time>
      </trkpt>
      <trkpt lat="47.82059" lon="-2.38199">
        <ele>9.898438</ele>
        <time>2014-04-13T14:00:54Z</time>
      </trkpt>
      <trkpt lat="47.82006" lon="-2.38171">
        <ele>15.097656</ele>
        <time>2014-04-13T14:01:59Z</time>
      </trkpt>
      <trkpt lat="47.81998" lon="-2.38161">
        <ele>17.398438</ele>
        <time>2014-04-13T14:02:08Z</time>
      </trkpt>
      <trkpt lat="47.81991" lon="-2.38151">
        <ele>20.199219</ele>
        <time>2014-04-13T14:02:15Z</time>
      </trkpt>
      <trkpt lat="47.81983" lon="-2.38137">
        <ele>19.296875</ele>
        <time>2014-04-13T14:02:26Z</time>
      </trkpt>
      <trkpt lat="47.81978" lon="-2.38125">
        <ele>18.296875</ele>
        <time>2014-04-13T14:02:35Z</time>
      </trkpt>
      <trkpt lat="47.81975" lon="-2.38112">
        <ele>19</ele>
        <time>2014-04-13T14:02:43Z</time>
      </trkpt>
      <trkpt lat="47.81973" lon="-2.38099">
        <ele>20.398438</ele>
        <time>2014-04-13T14:02:51Z</time>
      </trkpt>
      <trkpt lat="47.81969" lon="-2.38086">
        <ele>21.296875</ele>
        <time>2014-04-13T14:02:59Z</time>
      </trkpt>
      <trkpt lat="47.81963" lon="-2.38077">
        <ele>22</ele>
        <time>2014-04-13T14:03:07Z</time>
      </trkpt>
      <trkpt lat="47.81956" lon="-2.38066">
        <ele>22</ele>
        <time>2014-04-13T14:03:17Z</time>
      </trkpt>
      <trkpt lat="47.81949" lon="-2.38051">
        <ele>22.898438</ele>
        <time>2014-04-13T14:03:31Z</time>
      </trkpt>
      <trkpt lat="47.81942" lon="-2.38042">
        <ele>23</ele>
        <time>2014-04-13T14:03:41Z</time>
      </trkpt>
      <trkpt lat="47.81934" lon="-2.38034">
        <ele>24.597656</ele>
        <time>2014-04-13T14:03:49Z</time>
      </trkpt>
      <trkpt lat="47.81928" lon="-2.38024">
        <ele>24.796875</ele>
        <time>2014-04-13T14:03:56Z</time>
      </trkpt>
      <trkpt lat="47.81907" lon="-2.37994">
        <ele>26.597656</ele>
        <time>2014-04-13T14:04:18Z</time>
      </trkpt>
      <trkpt lat="47.81836" lon="-2.37819">
        <ele>50.222656</ele>
        <time>2014-04-13T14:07:30Z</time>
      </trkpt>
      <trkpt lat="47.81835" lon="-2.37821">
        <ele>45.816406</ele>
        <time>2014-04-13T14:07:31Z</time>
      </trkpt>
      <trkpt lat="47.81826" lon="-2.37826">
        <ele>19.03125</ele>
        <time>2014-04-13T14:09:04Z</time>
      </trkpt>
      <trkpt lat="47.81817" lon="-2.3782">
        <ele>5.5</ele>
        <time>2014-04-13T14:12:13Z</time>
      </trkpt>
      <trkpt lat="47.8181" lon="-2.37811">
        <ele>2.597656</ele>
        <time>2014-04-13T14:12:22Z</time>
      </trkpt>
      <trkpt lat="47.81803" lon="-2.37803">
        <ele>5</ele>
        <time>2014-04-13T14:12:30Z</time>
      </trkpt>
      <trkpt lat="47.81798" lon="-2.37792">
        <ele>8.796875</ele>
        <time>2014-04-13T14:12:38Z</time>
      </trkpt>
      <trkpt lat="47.81791" lon="-2.37781">
        <ele>11.097656</ele>
        <time>2014-04-13T14:12:47Z</time>
      </trkpt>
      <trkpt lat="47.81784" lon="-2.37773">
        <ele>11.398438</ele>
        <time>2014-04-13T14:12:56Z</time>
      </trkpt>
      <trkpt lat="47.81762" lon="-2.37745">
        <ele>13.5</ele>
        <time>2014-04-13T14:13:24Z</time>
      </trkpt>
      <trkpt lat="47.81738" lon="-2.37719">
        <ele>14</ele>
        <time>2014-04-13T14:13:48Z</time>
      </trkpt>
      <trkpt lat="47.8173" lon="-2.37712">
        <ele>14.199219</ele>
        <time>2014-04-13T14:13:56Z</time>
      </trkpt>
      <trkpt lat="47.81722" lon="-2.37705">
        <ele>10.597656</ele>
        <time>2014-04-13T14:14:06Z</time>
      </trkpt>
      <trkpt lat="47.81714" lon="-2.37697">
        <ele>9</ele>
        <time>2014-04-13T14:14:16Z</time>
      </trkpt>
      <trkpt lat="47.81707" lon="-2.37688">
        <ele>9.199219</ele>
        <time>2014-04-13T14:14:24Z</time>
      </trkpt>
      <trkpt lat="47.81699" lon="-2.3768">
        <ele>9.597656</ele>
        <time>2014-04-13T14:14:31Z</time>
      </trkpt>
      <trkpt lat="47.8169" lon="-2.37672">
        <ele>10.5</ele>
        <time>2014-04-13T14:14:39Z</time>
      </trkpt>
      <trkpt lat="47.81681" lon="-2.37667">
        <ele>9.796875</ele>
        <time>2014-04-13T14:14:47Z</time>
      </trkpt>
      <trkpt lat="47.81672" lon="-2.37665">
        <ele>8.597656</ele>
        <time>2014-04-13T14:14:55Z</time>
      </trkpt>
      <trkpt lat="47.81662" lon="-2.37666">
        <ele>8.699219</ele>
        <time>2014-04-13T14:15:05Z</time>
      </trkpt>
      <trkpt lat="47.81653" lon="-2.37666">
        <ele>9.398438</ele>
        <time>2014-04-13T14:15:15Z</time>
      </trkpt>
      <trkpt lat="47.81644" lon="-2.37664">
        <ele>9.5</ele>
        <time>2014-04-13T14:15:24Z</time>
      </trkpt>
      <trkpt lat="47.81624" lon="-2.37659">
        <ele>10.597656</ele>
        <time>2014-04-13T14:15:42Z</time>
      </trkpt>
      <trkpt lat="47.81603" lon="-2.37659">
        <ele>8.699219</ele>
        <time>2014-04-13T14:16:07Z</time>
      </trkpt>
      <trkpt lat="47.81594" lon="-2.37656">
        <ele>9.398438</ele>
        <time>2014-04-13T14:16:15Z</time>
      </trkpt>
      <trkpt lat="47.81574" lon="-2.3765">
        <ele>9.398438</ele>
        <time>2014-04-13T14:16:33Z</time>
      </trkpt>
      <trkpt lat="47.81565" lon="-2.37649">
        <ele>11.097656</ele>
        <time>2014-04-13T14:16:41Z</time>
      </trkpt>
      <trkpt lat="47.81537" lon="-2.37649">
        <ele>14.699219</ele>
        <time>2014-04-13T14:17:03Z</time>
      </trkpt>
      <trkpt lat="47.81526" lon="-2.3765">
        <ele>15</ele>
        <time>2014-04-13T14:17:09Z</time>
      </trkpt>
      <trkpt lat="47.81517" lon="-2.37647">
        <ele>13.296875</ele>
        <time>2014-04-13T14:17:17Z</time>
      </trkpt>
      <trkpt lat="47.81508" lon="-2.37646">
        <ele>15.296875</ele>
        <time>2014-04-13T14:17:25Z</time>
      </trkpt>
      <trkpt lat="47.81489" lon="-2.37646">
        <ele>14.898438</ele>
        <time>2014-04-13T14:17:41Z</time>
      </trkpt>
      <trkpt lat="47.81481" lon="-2.37637">
        <ele>14.597656</ele>
        <time>2014-04-13T14:17:50Z</time>
      </trkpt>
      <trkpt lat="47.81475" lon="-2.37625">
        <ele>14.597656</ele>
        <time>2014-04-13T14:18:00Z</time>
      </trkpt>
      <trkpt lat="47.8147" lon="-2.37613">
        <ele>15.199219</ele>
        <time>2014-04-13T14:18:09Z</time>
      </trkpt>
      <trkpt lat="47.8146" lon="-2.3761">
        <ele>14.898438</ele>
        <time>2014-04-13T14:18:19Z</time>
      </trkpt>
      <trkpt lat="47.81451" lon="-2.37612">
        <ele>13.5</ele>
        <time>2014-04-13T14:18:27Z</time>
      </trkpt>
      <trkpt lat="47.81413" lon="-2.3762">
        <ele>19.898438</ele>
        <time>2014-04-13T14:18:59Z</time>
      </trkpt>
      <trkpt lat="47.81404" lon="-2.37623">
        <ele>17.796875</ele>
        <time>2014-04-13T14:19:07Z</time>
      </trkpt>
      <trkpt lat="47.81337" lon="-2.37651">
        <ele>13.097656</ele>
        <time>2014-04-13T14:19:59Z</time>
      </trkpt>
      <trkpt lat="47.81301" lon="-2.37665">
        <ele>9.699219</ele>
        <time>2014-04-13T14:20:31Z</time>
      </trkpt>
      <trkpt lat="47.81292" lon="-2.37671">
        <ele>8.097656</ele>
        <time>2014-04-13T14:20:38Z</time>
      </trkpt>
      <trkpt lat="47.81258" lon="-2.37697">
        <ele>10.296875</ele>
        <time>2014-04-13T14:21:08Z</time>
      </trkpt>
      <trkpt lat="47.81249" lon="-2.37705">
        <ele>10.898438</ele>
        <time>2014-04-13T14:21:17Z</time>
      </trkpt>
      <trkpt lat="47.81242" lon="-2.37715">
        <ele>11.5</ele>
        <time>2014-04-13T14:21:25Z</time>
      </trkpt>
      <trkpt lat="47.81227" lon="-2.37732">
        <ele>9.597656</ele>
        <time>2014-04-13T14:21:44Z</time>
      </trkpt>
      <trkpt lat="47.81219" lon="-2.37741">
        <ele>7.699219</ele>
        <time>2014-04-13T14:21:53Z</time>
      </trkpt>
      <trkpt lat="47.81211" lon="-2.37748">
        <ele>7.199219</ele>
        <time>2014-04-13T14:22:02Z</time>
      </trkpt>
      <trkpt lat="47.81202" lon="-2.37753">
        <ele>7.5</ele>
        <time>2014-04-13T14:22:10Z</time>
      </trkpt>
      <trkpt lat="47.81193" lon="-2.37758">
        <ele>7.699219</ele>
        <time>2014-04-13T14:22:18Z</time>
      </trkpt>
      <trkpt lat="47.81184" lon="-2.37762">
        <ele>6.699219</ele>
        <time>2014-04-13T14:22:26Z</time>
      </trkpt>
      <trkpt lat="47.81175" lon="-2.37764">
        <ele>7.699219</ele>
        <time>2014-04-13T14:22:35Z</time>
      </trkpt>
      <trkpt lat="47.81165" lon="-2.37768">
        <ele>9.097656</ele>
        <time>2014-04-13T14:22:44Z</time>
      </trkpt>
      <trkpt lat="47.81156" lon="-2.3777">
        <ele>9.097656</ele>
        <time>2014-04-13T14:22:53Z</time>
      </trkpt>
      <trkpt lat="47.81146" lon="-2.37772">
        <ele>9.097656</ele>
        <time>2014-04-13T14:23:01Z</time>
      </trkpt>
      <trkpt lat="47.81136" lon="-2.37774">
        <ele>10.296875</ele>
        <time>2014-04-13T14:23:08Z</time>
      </trkpt>
      <trkpt lat="47.81118" lon="-2.37773">
        <ele>11.898438</ele>
        <time>2014-04-13T14:23:25Z</time>
      </trkpt>
      <trkpt lat="47.81112" lon="-2.37785">
        <ele>11.199219</ele>
        <time>2014-04-13T14:23:33Z</time>
      </trkpt>
      <trkpt lat="47.81108" lon="-2.37797">
        <ele>9.199219</ele>
        <time>2014-04-13T14:23:39Z</time>
      </trkpt>
      <trkpt lat="47.81105" lon="-2.37811">
        <ele>5.898438</ele>
        <time>2014-04-13T14:23:46Z</time>
      </trkpt>
      <trkpt lat="47.81101" lon="-2.37823">
        <ele>5.699219</ele>
        <time>2014-04-13T14:23:53Z</time>
      </trkpt>
      <trkpt lat="47.81098" lon="-2.37838">
        <ele>4.597656</ele>
        <time>2014-04-13T14:24:00Z</time>
      </trkpt>
      <trkpt lat="47.81094" lon="-2.3785">
        <ele>2.097656</ele>
        <time>2014-04-13T14:24:07Z</time>
      </trkpt>
      <trkpt lat="47.81081" lon="-2.37887">
        <ele>2.199219</ele>
        <time>2014-04-13T14:24:31Z</time>
      </trkpt>
      <trkpt lat="47.81073" lon="-2.37895">
        <ele>0.699219</ele>
        <time>2014-04-13T14:24:40Z</time>
      </trkpt>
      <trkpt lat="47.81059" lon="-2.37913">
        <ele>-0.199219</ele>
        <time>2014-04-13T14:24:54Z</time>
      </trkpt>
      <trkpt lat="47.81055" lon="-2.37928">
        <ele>2</ele>
        <time>2014-04-13T14:25:03Z</time>
      </trkpt>
      <trkpt lat="47.81052" lon="-2.37941">
        <ele>0.699219</ele>
        <time>2014-04-13T14:25:13Z</time>
      </trkpt>
      <trkpt lat="47.8105" lon="-2.37956">
        <ele>0.5</ele>
        <time>2014-04-13T14:25:22Z</time>
      </trkpt>
      <trkpt lat="47.81049" lon="-2.37971">
        <ele>0.898438</ele>
        <time>2014-04-13T14:25:30Z</time>
      </trkpt>
      <trkpt lat="47.81051" lon="-2.37986">
        <ele>-0.898438</ele>
        <time>2014-04-13T14:25:38Z</time>
      </trkpt>
      <trkpt lat="47.81052" lon="-2.37999">
        <ele>0.398438</ele>
        <time>2014-04-13T14:25:46Z</time>
      </trkpt>
      <trkpt lat="47.81051" lon="-2.38014">
        <ele>3</ele>
        <time>2014-04-13T14:25:53Z</time>
      </trkpt>
      <trkpt lat="47.81049" lon="-2.38028">
        <ele>6.398438</ele>
        <time>2014-04-13T14:26:01Z</time>
      </trkpt>
      <trkpt lat="47.81045" lon="-2.38041">
        <ele>7.097656</ele>
        <time>2014-04-13T14:26:08Z</time>
      </trkpt>
      <trkpt lat="47.8104" lon="-2.38052">
        <ele>7.398438</ele>
        <time>2014-04-13T14:26:15Z</time>
      </trkpt>
      <trkpt lat="47.81013" lon="-2.38111">
        <ele>10.199219</ele>
        <time>2014-04-13T14:26:52Z</time>
      </trkpt>
      <trkpt lat="47.81013" lon="-2.38125">
        <ele>9.296875</ele>
        <time>2014-04-13T14:27:14Z</time>
      </trkpt>
      <trkpt lat="47.81022" lon="-2.3813">
        <ele>6.597656</ele>
        <time>2014-04-13T14:27:22Z</time>
      </trkpt>
      <trkpt lat="47.81031" lon="-2.38134">
        <ele>4.199219</ele>
        <time>2014-04-13T14:27:31Z</time>
      </trkpt>
      <trkpt lat="47.8104" lon="-2.38141">
        <ele>6.398438</ele>
        <time>2014-04-13T14:27:46Z</time>
      </trkpt>
      <trkpt lat="47.81049" lon="-2.38144">
        <ele>9.597656</ele>
        <time>2014-04-13T14:27:54Z</time>
      </trkpt>
      <trkpt lat="47.81057" lon="-2.38148">
        <ele>8.398438</ele>
        <time>2014-04-13T14:28:04Z</time>
      </trkpt>
      <trkpt lat="47.81066" lon="-2.38156">
        <ele>8.097656</ele>
        <time>2014-04-13T14:28:15Z</time>
      </trkpt>
      <trkpt lat="47.81102" lon="-2.38187">
        <ele>9.398438</ele>
        <time>2014-04-13T14:28:56Z</time>
      </trkpt>
      <trkpt lat="47.81111" lon="-2.38195">
        <ele>9.5</ele>
        <time>2014-04-13T14:29:03Z</time>
      </trkpt>
      <trkpt lat="47.81133" lon="-2.3822">
        <ele>16.199219</ele>
        <time>2014-04-13T14:29:24Z</time>
      </trkpt>
      <trkpt lat="47.81142" lon="-2.38228">
        <ele>17.5</ele>
        <time>2014-04-13T14:29:40Z</time>
      </trkpt>
      <trkpt lat="47.81149" lon="-2.38238">
        <ele>17.699219</ele>
        <time>2014-04-13T14:29:52Z</time>
      </trkpt>
      <trkpt lat="47.81163" lon="-2.38258">
        <ele>15.097656</ele>
        <time>2014-04-13T14:30:05Z</time>
      </trkpt>
      <trkpt lat="47.81177" lon="-2.38281">
        <ele>11.332031</ele>
        <time>2014-04-13T14:30:39Z</time>
      </trkpt>
    </trkseg>
  </trk>
</gpx>